Air Quality Table

TIMESTAMP NO2 SO2 O3 PM10 PM2.5 CO TEMP HUM WS WD NO
2021-08-02 16:00 1.02 ug/m3 1.29 ug/m3 123.56 ug/m3 22.24 ug/m3 7.96 ug/m3 0.16 mg/m3 31.23 C 52.99 % 2.85 m/s 260.3 Deg 0.04 ug/m3
2021-08-02 15:00 0.69 ug/m3 0.99 ug/m3 123.83 ug/m3 20.63 ug/m3 8.24 ug/m3 0.16 mg/m3 29.46 C 72.78 % 3.09 m/s 261.6 Deg 0.05 ug/m3
2021-08-02 14:00 0.98 ug/m3 0.93 ug/m3 122.63 ug/m3 24.76 ug/m3 8.63 ug/m3 0.15 mg/m3 29.02 C 78.7 % 3.83 m/s 264.53 Deg 0.09 ug/m3
2021-08-02 13:00 1.76 ug/m3 1.12 ug/m3 119.53 ug/m3 26.67 ug/m3 9.45 ug/m3 0.23 mg/m3 29.43 C 75.73 % 3.16 m/s 238.84 Deg 0.18 ug/m3
2021-08-02 12:00 2.33 ug/m3 1.26 ug/m3 118.97 ug/m3 28.29 ug/m3 11.86 ug/m3 0.18 mg/m3 30.48 C 67.16 % 2.46 m/s 233.3 Deg 0.21 ug/m3
2021-08-02 11:00 2.47 ug/m3 1.46 ug/m3 116.97 ug/m3 30.68 ug/m3 10.92 ug/m3 0.19 mg/m3 30.45 C 62.73 % 2.1 m/s 249.27 Deg 0.2 ug/m3
2021-08-02 10:00 2.83 ug/m3 1.36 ug/m3 111.64 ug/m3 28.97 ug/m3 11.92 ug/m3 0.18 mg/m3 30.86 C 57.66 % 2.5 m/s 245.28 Deg 0.23 ug/m3
2021-08-02 09:00 6.62 ug/m3 1.06 ug/m3 96.3 ug/m3 25.56 ug/m3 9.06 ug/m3 0.2 mg/m3 30.05 C 65.83 % 1.77 m/s 183.72 Deg 0.94 ug/m3
2021-08-02 08:00 8.94 ug/m3 0.02 ug/m3 77.1 ug/m3 19.47 ug/m3 6.66 ug/m3 0.18 mg/m3 27.84 C 84.86 % 1.9 m/s 289.24 Deg 1.39 ug/m3
2021-08-02 07:00 5.56 ug/m3 0.05 ug/m3 71.54 ug/m3 18.78 ug/m3 6.87 ug/m3 0.16 mg/m3 26.79 C 94.04 % 1.82 m/s 322.92 Deg 0.35 ug/m3
2021-08-02 06:00 4.16 ug/m3 0.08 ug/m3 84.69 ug/m3 26.74 ug/m3 8.56 ug/m3 0.15 mg/m3 26.62 C 93.26 % 2.96 m/s 274.42 Deg 0.05 ug/m3
2021-08-02 05:00 2.48 ug/m3 0.3 ug/m3 102.95 ug/m3 29.27 ug/m3 7.93 ug/m3 0.16 mg/m3 28.01 C 80.12 % 2.35 m/s 232.6 Deg -0.01 ug/m3
2021-08-02 04:00 2.65 ug/m3 1.68 ug/m3 112.49 ug/m3 30.04 ug/m3 9.42 ug/m3 0.15 mg/m3 30.38 C 47.69 % 1.83 m/s 78.18 Deg -0.01 ug/m3
2021-08-02 03:00 4.52 ug/m3 0.61 ug/m3 105.27 ug/m3 30.39 ug/m3 9.55 ug/m3 0.15 mg/m3 28.08 C 68.47 % 3.52 m/s 11.62 Deg -0.01 ug/m3
2021-08-02 02:00 2.81 ug/m3 0.85 ug/m3 109.59 ug/m3 29.27 ug/m3 9.49 ug/m3 0.13 mg/m3 29.49 C 52.16 % 3.63 m/s 17.53 Deg -0.02 ug/m3
2021-08-02 01:00 4.76 ug/m3 0.73 ug/m3 103.78 ug/m3 29.15 ug/m3 9.81 ug/m3 0.15 mg/m3 28.39 C 64.68 % 2.78 m/s 28.3 Deg 0 ug/m3
2021-08-02 00:00 6.83 ug/m3 0.42 ug/m3 95.86 ug/m3 28.24 ug/m3 9.45 ug/m3 0.16 mg/m3 27.72 C 75.38 % 3.48 m/s 20.45 Deg 0 ug/m3
2021-08-01 23:00 5.32 ug/m3 0.1 ug/m3 75.51 ug/m3 27.12 ug/m3 8.95 ug/m3 0.16 mg/m3 27.05 C 89.28 % 2.69 m/s 34.71 Deg 0.01 ug/m3
2021-08-01 22:00 1.08 ug/m3 0.16 ug/m3 74.96 ug/m3 29.29 ug/m3 8.75 ug/m3 0.16 mg/m3 27.87 C 87 % 2.41 m/s 31.65 Deg 0 ug/m3
2021-08-01 21:00 1.97 ug/m3 0.44 ug/m3 86.04 ug/m3 26.9 ug/m3 8.83 ug/m3 0.15 mg/m3 29.23 C 64.27 % 2.24 m/s 22.43 Deg -0.02 ug/m3
2021-08-01 20:00 2.43 ug/m3 0.96 ug/m3 94.33 ug/m3 26.64 ug/m3 8.27 ug/m3 0.14 mg/m3 30.21 C 47.17 % 1.65 m/s 169.17 Deg -0.02 ug/m3
2021-08-01 19:00 5.2 ug/m3 1.23 ug/m3 95.24 ug/m3 27.11 ug/m3 9.2 ug/m3 0.14 mg/m3 31.36 C 39.9 % 1.78 m/s 300.99 Deg -0.02 ug/m3
2021-08-01 18:00 2.52 ug/m3 1.23 ug/m3 100.55 ug/m3 28.03 ug/m3 9.22 ug/m3 0.14 mg/m3 32.28 C 37.29 % 2.05 m/s 233.52 Deg 0 ug/m3
2021-08-01 17:00 2.52 ug/m3 1.4 ug/m3 94.8 ug/m3 30.52 ug/m3 8.61 ug/m3 0.15 mg/m3 31.28 C 48.1 % 4.03 m/s 224.18 Deg 0.09 ug/m3
2021-08-01 16:00 3.57 ug/m3 1 ug/m3 99.33 ug/m3 33.45 ug/m3 9.26 ug/m3 0.15 mg/m3 31.96 C 41.79 % 5.51 m/s 212.81 Deg 0.05 ug/m3
2021-08-01 15:00 2.96 ug/m3 0.57 ug/m3 96.32 ug/m3 35.24 ug/m3 10.54 ug/m3 0.16 mg/m3 31.1 C 55.3 % 4.91 m/s 216.8 Deg 0.06 ug/m3
2021-08-01 14:00 3.07 ug/m3 0.73 ug/m3 98.03 ug/m3 36.4 ug/m3 10.64 ug/m3 0.14 mg/m3 32.81 C 37.29 % 4.81 m/s 214.65 Deg 0.05 ug/m3
2021-08-01 13:00 2.09 ug/m3 1.13 ug/m3 113.85 ug/m3 34.38 ug/m3 11.26 ug/m3 0.17 mg/m3 33.62 C 44.05 % 3.91 m/s 227.01 Deg 0.14 ug/m3
2021-08-01 12:00 2.35 ug/m3 0.89 ug/m3 101.91 ug/m3 32.94 ug/m3 10.97 ug/m3 0.17 mg/m3 32.17 C 53.03 % 2.6 m/s 257.36 Deg 0.1 ug/m3
2021-08-01 11:00 2.71 ug/m3 0.94 ug/m3 108.21 ug/m3 32.96 ug/m3 11.88 ug/m3 0.15 mg/m3 32.88 C 40.61 % 1.87 m/s 248.45 Deg 0.07 ug/m3
2021-08-01 10:00 2.04 ug/m3 0.81 ug/m3 104.82 ug/m3 33.66 ug/m3 11.47 ug/m3 0.15 mg/m3 31.6 C 46.2 % 2.36 m/s 242.43 Deg 0.05 ug/m3
2021-08-01 09:00 3.51 ug/m3 1.15 ug/m3 105.99 ug/m3 33.87 ug/m3 11.78 ug/m3 0.16 mg/m3 33.48 C 38.2 % 1.87 m/s 115.28 Deg 0.12 ug/m3
2021-08-01 08:00 1.65 ug/m3 0.82 ug/m3 100.85 ug/m3 30.52 ug/m3 11.4 ug/m3 0.15 mg/m3 30.87 C 53.6 % 1.43 m/s 257.82 Deg 0.09 ug/m3
2021-08-01 07:00 4.06 ug/m3 0.35 ug/m3 89.39 ug/m3 29.74 ug/m3 11.95 ug/m3 0.16 mg/m3 27.79 C 83.7 % 2.55 m/s 303.91 Deg 0.45 ug/m3
2021-08-01 06:00 3.75 ug/m3 0.29 ug/m3 83.21 ug/m3 27.93 ug/m3 12.13 ug/m3 0.16 mg/m3 27.53 C 85.96 % 3.89 m/s 282.99 Deg 0.01 ug/m3
2021-08-01 05:00 3.95 ug/m3 0.51 ug/m3 93.72 ug/m3 31.6 ug/m3 10.03 ug/m3 0.15 mg/m3 29.35 C 61.93 % 3.4 m/s 225.23 Deg -0.01 ug/m3
2021-08-01 04:00 5.63 ug/m3 0.94 ug/m3 105.09 ug/m3 36.05 ug/m3 11.13 ug/m3 0.14 mg/m3 32.7 C 31.02 % 3.35 m/s 68.01 Deg -0.03 ug/m3
2021-08-01 03:00 3.45 ug/m3 0.73 ug/m3 99.59 ug/m3 35.24 ug/m3 10.08 ug/m3 0.13 mg/m3 32.03 C 31.36 % 3.54 m/s 75.85 Deg -0.01 ug/m3
2021-08-01 02:00 1.89 ug/m3 0.49 ug/m3 87.98 ug/m3 29.94 ug/m3 8.08 ug/m3 0.14 mg/m3 28.63 C 60.52 % 2.72 m/s 46.71 Deg -0.02 ug/m3
2021-08-01 01:00 0.86 ug/m3 0.11 ug/m3 88.56 ug/m3 32.91 ug/m3 11.17 ug/m3 0.17 mg/m3 27.49 C 93.25 % 2.23 m/s 330.76 Deg -0.01 ug/m3
2021-08-01 00:00 8.84 ug/m3 0.7 ug/m3 85.76 ug/m3 36.02 ug/m3 11.1 ug/m3 0.18 mg/m3 28.46 C 67.46 % 1.98 m/s 291.43 Deg -0.01 ug/m3
2021-07-31 23:00 4.29 ug/m3 1.02 ug/m3 99.25 ug/m3 39.34 ug/m3 10.79 ug/m3 0.16 mg/m3 29.79 C 44.58 % 1.92 m/s 274.15 Deg -0.02 ug/m3
2021-07-31 22:00 7.27 ug/m3 1.2 ug/m3 95.3 ug/m3 34.71 ug/m3 9.89 ug/m3 0.18 mg/m3 29.94 C 47.5 % 1.43 m/s 123.56 Deg -0.01 ug/m3
2021-07-31 21:00 2.06 ug/m3 0.55 ug/m3 95.06 ug/m3 29.63 ug/m3 10.88 ug/m3 0.17 mg/m3 28.58 C 64.65 % 2.21 m/s 80.36 Deg 0 ug/m3
2021-07-31 20:00 0.53 ug/m3 0.19 ug/m3 88.43 ug/m3 28.22 ug/m3 10.25 ug/m3 0.19 mg/m3 27.81 C 87.74 % 1.41 m/s 42.21 Deg -0.02 ug/m3
2021-07-31 19:00 0.3 ug/m3 0.57 ug/m3 108.44 ug/m3 27.7 ug/m3 9.13 ug/m3 0.17 mg/m3 28.98 C 76.42 % 1.52 m/s 151.99 Deg 0 ug/m3
2021-07-31 18:00 0.52 ug/m3 0.79 ug/m3 111.56 ug/m3 29.18 ug/m3 8.9 ug/m3 0.17 mg/m3 30.55 C 65.56 % 1.43 m/s 121.56 Deg 0.03 ug/m3
2021-07-31 17:00 1.18 ug/m3 1.1 ug/m3 110.51 ug/m3 28.86 ug/m3 8.99 ug/m3 0.17 mg/m3 31.59 C 61.81 % 1.67 m/s 285.76 Deg 0.1 ug/m3
2021-07-31 16:00 1.06 ug/m3 0.95 ug/m3 107.94 ug/m3 26.51 ug/m3 8.69 ug/m3 0.17 mg/m3 31.56 C 62.93 % 2.01 m/s 271.5 Deg 0.11 ug/m3
2021-07-31 15:00 0.55 ug/m3 0.39 ug/m3 105.44 ug/m3 24.11 ug/m3 10.31 ug/m3 0.17 mg/m3 30.69 C 67.22 % 2.25 m/s 241.61 Deg 0.07 ug/m3
2021-07-31 14:00 0.71 ug/m3 0.27 ug/m3 107.8 ug/m3 23.58 ug/m3 9.94 ug/m3 0.17 mg/m3 29.34 C 75.13 % 3.17 m/s 227.09 Deg 0.1 ug/m3
2021-07-31 13:00 0.29 ug/m3 0.55 ug/m3 103.3 ug/m3 23.74 ug/m3 9.02 ug/m3 0.17 mg/m3 29.17 C 75.53 % 3.3 m/s 215.79 Deg 0.04 ug/m3
2021-07-31 12:00 0.56 ug/m3 1.05 ug/m3 104.85 ug/m3 27.95 ug/m3 8.96 ug/m3 0.17 mg/m3 30.21 C 64.23 % 2.97 m/s 231.63 Deg 0.04 ug/m3
2021-07-31 11:00 1.08 ug/m3 1.27 ug/m3 107.47 ug/m3 35.46 ug/m3 10.94 ug/m3 0.16 mg/m3 30.37 C 57.46 % 2.92 m/s 230.7 Deg 0.08 ug/m3
2021-07-31 10:00 1.06 ug/m3 1.51 ug/m3 110.27 ug/m3 31.09 ug/m3 10.08 ug/m3 0.16 mg/m3 30.71 C 52.9 % 2.39 m/s 234.14 Deg 0.16 ug/m3
2021-07-31 09:00 0.63 ug/m3 0.86 ug/m3 106.07 ug/m3 26.42 ug/m3 10.87 ug/m3 0.17 mg/m3 29.11 C 64.57 % 3.39 m/s 260.43 Deg 0.06 ug/m3
2021-07-31 08:00 0.4 ug/m3 0.11 ug/m3 100.52 ug/m3 24.14 ug/m3 10.74 ug/m3 0.18 mg/m3 27.49 C 80.43 % 3.33 m/s 242.37 Deg 0.05 ug/m3
2021-07-31 07:00 0.29 ug/m3 0.11 ug/m3 96.67 ug/m3 23.99 ug/m3 9.92 ug/m3 0.18 mg/m3 26.57 C 87.89 % 2.99 m/s 227.25 Deg 0.03 ug/m3
2021-07-31 06:00 0.19 ug/m3 0.12 ug/m3 97.02 ug/m3 21.47 ug/m3 10.35 ug/m3 0.18 mg/m3 26.23 C 85.65 % 2.02 m/s 219.87 Deg -0.01 ug/m3
2021-07-31 05:00 0.31 ug/m3 0.06 ug/m3 97.62 ug/m3 19.45 ug/m3 8.9 ug/m3 0.18 mg/m3 25.95 C 90.96 % 3.8 m/s 210.56 Deg 0 ug/m3
2021-07-31 04:00 1.75 ug/m3 0.23 ug/m3 100.25 ug/m3 18.35 ug/m3 8.21 ug/m3 0.17 mg/m3 25.94 C 92.71 % 4.11 m/s 214.72 Deg -0 ug/m3
2021-07-31 03:00 1.07 ug/m3 0.2 ug/m3 104.71 ug/m3 18.54 ug/m3 7.43 ug/m3 0.17 mg/m3 26.11 C 90.89 % 3.87 m/s 218.48 Deg 0.01 ug/m3
2021-07-31 02:00 0.58 ug/m3 0.3 ug/m3 105.94 ug/m3 17.25 ug/m3 6.93 ug/m3 0.15 mg/m3 26.31 C 87.46 % 3.75 m/s 213.67 Deg -0.01 ug/m3
2021-07-31 01:00 0.48 ug/m3 0.34 ug/m3 104.08 ug/m3 17.09 ug/m3 6.85 ug/m3 0.17 mg/m3 26.67 C 84.28 % 3.9 m/s 218.14 Deg -0.02 ug/m3
2021-07-31 00:00 0.47 ug/m3 0.52 ug/m3 103.3 ug/m3 17.95 ug/m3 7.27 ug/m3 0.16 mg/m3 27.14 C 78.95 % 4.07 m/s 211.67 Deg -0.01 ug/m3
2021-07-30 23:00 0.41 ug/m3 0.45 ug/m3 97.39 ug/m3 19.29 ug/m3 8.01 ug/m3 0.16 mg/m3 27.29 C 76.94 % 4.19 m/s 207.64 Deg -0.01 ug/m3
2021-07-30 22:00 1.57 ug/m3 0.92 ug/m3 98.86 ug/m3 21.27 ug/m3 8.14 ug/m3 0.16 mg/m3 28.12 C 67.15 % 4.42 m/s 210.68 Deg 0 ug/m3
2021-07-30 21:00 1.95 ug/m3 1.37 ug/m3 104.37 ug/m3 21.71 ug/m3 7.66 ug/m3 0.15 mg/m3 29.02 C 54.66 % 4.78 m/s 206.89 Deg -0.02 ug/m3
2021-07-30 20:00 1.38 ug/m3 1.32 ug/m3 104.26 ug/m3 22.16 ug/m3 8 ug/m3 0.15 mg/m3 29.33 C 50.91 % 4.95 m/s 205.13 Deg -0.01 ug/m3
2021-07-30 19:00 0.69 ug/m3 0.91 ug/m3 101.04 ug/m3 20.55 ug/m3 7 ug/m3 0.14 mg/m3 29.56 C 51.76 % 5.09 m/s 208.45 Deg 0 ug/m3
2021-07-30 18:00 0.4 ug/m3 0.61 ug/m3 98.97 ug/m3 16.37 ug/m3 5.84 ug/m3 0.15 mg/m3 29.47 C 57.25 % 4.74 m/s 211.78 Deg 0.03 ug/m3
2021-07-30 17:00 0.17 ug/m3 0.54 ug/m3 93.86 ug/m3 14.07 ug/m3 5.66 ug/m3 0.16 mg/m3 28.6 C 70.75 % 4.7 m/s 211.48 Deg 0.03 ug/m3
2021-07-30 16:00 0.18 ug/m3 0.69 ug/m3 92.8 ug/m3 13.71 ug/m3 6 ug/m3 0.16 mg/m3 28.97 C 69.15 % 4.74 m/s 215.37 Deg 0.02 ug/m3
2021-07-30 15:00 0.63 ug/m3 0.88 ug/m3 98.23 ug/m3 11.41 ug/m3 6.14 ug/m3 0.16 mg/m3 28.72 C 71.23 % 4.75 m/s 212.78 Deg 0.09 ug/m3
2021-07-30 14:00 0.13 ug/m3 0.68 ug/m3 97.19 ug/m3 11.41 ug/m3 6.39 ug/m3 0.16 mg/m3 28.54 C 73.98 % 4.41 m/s 215.8 Deg 0.03 ug/m3
2021-07-30 13:00 0.31 ug/m3 1.07 ug/m3 100.37 ug/m3 11.09 ug/m3 5.42 ug/m3 0.16 mg/m3 28.61 C 70.52 % 4.37 m/s 214.62 Deg 0.04 ug/m3
2021-07-30 12:00 0.68 ug/m3 0.94 ug/m3 105.45 ug/m3 11.47 ug/m3 5.49 ug/m3 0.16 mg/m3 28.43 C 70.81 % 4.32 m/s 216.52 Deg 0.09 ug/m3
2021-07-30 11:00 0.69 ug/m3 1.18 ug/m3 107.57 ug/m3 11.51 ug/m3 5.37 ug/m3 0.16 mg/m3 28.53 C 66.29 % 4.17 m/s 221.92 Deg 0.04 ug/m3
2021-07-30 10:00 1.55 ug/m3 1.94 ug/m3 118.57 ug/m3 13.12 ug/m3 5.68 ug/m3 0.15 mg/m3 29.11 C 53.07 % 3.95 m/s 216.85 Deg 0.02 ug/m3
2021-07-30 09:00 2.6 ug/m3 1.93 ug/m3 124.44 ug/m3 13.9 ug/m3 5.16 ug/m3 0.15 mg/m3 29.73 C 40.7 % 3.29 m/s 224.49 Deg 1.43 ug/m3
2021-07-30 08:00 2.6 ug/m3 1.26 ug/m3 129.21 ug/m3 12.96 ug/m3 5.07 ug/m3 0.15 mg/m3 29.61 C 35.18 % 2.83 m/s 258.47 Deg -0.01 ug/m3
2021-07-30 07:00 3.69 ug/m3 1.58 ug/m3 117.82 ug/m3 9.85 ug/m3 5.05 ug/m3 0.16 mg/m3 28.26 C 45.15 % 2.43 m/s 266.41 Deg 0.1 ug/m3
2021-07-30 06:00 3.97 ug/m3 0.98 ug/m3 98.63 ug/m3 8.64 ug/m3 5.59 ug/m3 0.16 mg/m3 26.57 C 68.47 % 2.75 m/s 242.73 Deg 0.12 ug/m3
2021-07-30 05:00 0.45 ug/m3 0.52 ug/m3 90 ug/m3 7.87 ug/m3 5.39 ug/m3 0.15 mg/m3 25.92 C 82.12 % 2.91 m/s 240.95 Deg -0.01 ug/m3
2021-07-30 04:00 5.36 ug/m3 0.71 ug/m3 82.4 ug/m3 8.32 ug/m3 5.19 ug/m3 0.16 mg/m3 25.78 C 83.19 % 2.18 m/s 234.1 Deg -0.01 ug/m3
2021-07-30 03:00 0.77 ug/m3 0.46 ug/m3 88.43 ug/m3 9.21 ug/m3 5.13 ug/m3 0.15 mg/m3 26.11 C 80.38 % 1.45 m/s 226.83 Deg -0.02 ug/m3
2021-07-30 02:00 0.77 ug/m3 1.42 ug/m3 107.27 ug/m3 9.15 ug/m3 5.43 ug/m3 0.14 mg/m3 27.3 C 62.5 % 1.36 m/s 231.09 Deg -0.02 ug/m3
2021-07-30 01:00 1.28 ug/m3 1.44 ug/m3 110.5 ug/m3 9.18 ug/m3 5.16 ug/m3 0.15 mg/m3 27.49 C 55.94 % 1.51 m/s 283.02 Deg -0.02 ug/m3
2021-07-30 00:00 1.26 ug/m3 1.28 ug/m3 118.94 ug/m3 9.5 ug/m3 4.79 ug/m3 0.15 mg/m3 28.1 C 45.58 % 1.46 m/s 284.82 Deg -0.01 ug/m3
2021-07-29 23:00 0.2 ug/m3 1.49 ug/m3 110.67 ug/m3 9.74 ug/m3 4.96 ug/m3 0.15 mg/m3 27.99 C 51.72 % 1.95 m/s 289.49 Deg -0.02 ug/m3
2021-07-29 22:00 0.43 ug/m3 1.52 ug/m3 108.65 ug/m3 9.96 ug/m3 4.67 ug/m3 0.15 mg/m3 27.98 C 52.09 % 2.12 m/s 298.55 Deg -0.02 ug/m3
2021-07-29 21:00 0.37 ug/m3 1.43 ug/m3 110.66 ug/m3 9.62 ug/m3 4.94 ug/m3 0.15 mg/m3 28.05 C 53.06 % 2.26 m/s 294.28 Deg -0.02 ug/m3
2021-07-29 20:00 0.27 ug/m3 1.34 ug/m3 108.84 ug/m3 8.83 ug/m3 5.91 ug/m3 0.15 mg/m3 28 C 57.25 % 2.68 m/s 285.13 Deg -0.03 ug/m3
2021-07-29 19:00 -0.07 ug/m3 1.25 ug/m3 104.97 ug/m3 8.7 ug/m3 5.07 ug/m3 0.15 mg/m3 28.35 C 59.52 % 3.72 m/s 279.93 Deg -0 ug/m3
2021-07-29 18:00 -0.1 ug/m3 0.91 ug/m3 101.28 ug/m3 9.16 ug/m3 4.34 ug/m3 0.15 mg/m3 28.48 C 63.68 % 4.78 m/s 282.59 Deg 0.01 ug/m3
2021-07-29 17:00 0.06 ug/m3 0.53 ug/m3 102.99 ug/m3 8.11 ug/m3 4.54 ug/m3 0.15 mg/m3 28.84 C 59.26 % 5.08 m/s 284.81 Deg 0.01 ug/m3
2021-07-29 16:00 0.05 ug/m3 0.5 ug/m3 102.14 ug/m3 7.71 ug/m3 4.65 ug/m3 0.15 mg/m3 28.97 C 58.35 % 4.93 m/s 286.11 Deg 0.01 ug/m3
2021-07-29 15:00 0.06 ug/m3 0.51 ug/m3 102.98 ug/m3 8.38 ug/m3 4.75 ug/m3 0.16 mg/m3 28.72 C 63.03 % 4.83 m/s 297.03 Deg 0.02 ug/m3
2021-07-29 14:00 0.13 ug/m3 0.53 ug/m3 103.83 ug/m3 8.08 ug/m3 5.28 ug/m3 0.16 mg/m3 28.71 C 63.81 % 4.53 m/s 300.32 Deg 0.02 ug/m3
2021-07-29 13:00 0.18 ug/m3 0.49 ug/m3 107.02 ug/m3 7.76 ug/m3 5.34 ug/m3 0.16 mg/m3 28.56 C 64.39 % 4.55 m/s 314.43 Deg 0.03 ug/m3
2021-07-29 12:00 0.13 ug/m3 0.43 ug/m3 102.52 ug/m3 7.61 ug/m3 5.66 ug/m3 0.16 mg/m3 28.19 C 72.74 % 4.77 m/s 311.41 Deg 0.04 ug/m3
2021-07-29 11:00 0.9 ug/m3 0.52 ug/m3 112.53 ug/m3 7.87 ug/m3 5.95 ug/m3 0.16 mg/m3 27.61 C 75.86 % 4.93 m/s 319.07 Deg 0.11 ug/m3
2021-07-29 10:00 0.85 ug/m3 0.42 ug/m3 110.27 ug/m3 8.25 ug/m3 5.9 ug/m3 0.16 mg/m3 27.41 C 76.6 % 4.7 m/s 320.14 Deg 0.11 ug/m3
2021-07-29 09:00 0.88 ug/m3 0.56 ug/m3 109.68 ug/m3 8.63 ug/m3 5.06 ug/m3 0.16 mg/m3 27.78 C 65.94 % 4.16 m/s 319.55 Deg 0.07 ug/m3
2021-07-29 08:00 3.79 ug/m3 0.87 ug/m3 106.26 ug/m3 8.3 ug/m3 5.32 ug/m3 0.16 mg/m3 27.65 C 60.9 % 3.8 m/s 319.02 Deg 0.32 ug/m3
2021-07-29 07:00 3.54 ug/m3 0.95 ug/m3 107.01 ug/m3 7.53 ug/m3 5.14 ug/m3 0.16 mg/m3 27.58 C 51.97 % 2.85 m/s 316.36 Deg 0.2 ug/m3
2021-07-29 06:00 6.66 ug/m3 0.97 ug/m3 96.98 ug/m3 7.28 ug/m3 5.73 ug/m3 0.17 mg/m3 26.46 C 66.73 % 2.64 m/s 320.84 Deg 0.05 ug/m3
2021-07-29 05:00 8.5 ug/m3 1.09 ug/m3 89.76 ug/m3 7.55 ug/m3 6.35 ug/m3 0.16 mg/m3 26.24 C 69.95 % 2.87 m/s 322.55 Deg -0.01 ug/m3
2021-07-29 04:00 21.91 ug/m3 2.52 ug/m3 95.8 ug/m3 8.6 ug/m3 5.88 ug/m3 0.16 mg/m3 27.14 C 53.01 % 3.08 m/s 319.69 Deg 0.05 ug/m3
2021-07-29 03:00 2.83 ug/m3 1.03 ug/m3 113.98 ug/m3 8.01 ug/m3 5.57 ug/m3 0.16 mg/m3 27.78 C 42.66 % 2.67 m/s 323.35 Deg -0.03 ug/m3
2021-07-29 02:00 6.09 ug/m3 1.36 ug/m3 106.54 ug/m3 8.38 ug/m3 5.08 ug/m3 0.14 mg/m3 27.37 C 52.1 % 2.84 m/s 327.48 Deg -0.01 ug/m3
2021-07-29 01:00 3.96 ug/m3 0.73 ug/m3 100.56 ug/m3 7.77 ug/m3 5.49 ug/m3 0.16 mg/m3 26.37 C 68.58 % 2.43 m/s 316.55 Deg -0.02 ug/m3
2021-07-29 00:00 4.7 ug/m3 0.49 ug/m3 92.02 ug/m3 7.34 ug/m3 5.14 ug/m3 0.16 mg/m3 25.91 C 78.27 % 2.43 m/s 334.06 Deg -0.01 ug/m3
2021-07-28 23:00 5.46 ug/m3 0.41 ug/m3 89.08 ug/m3 7.44 ug/m3 5.37 ug/m3 0.16 mg/m3 25.9 C 80.13 % 2.53 m/s 345.57 Deg 0 ug/m3
2021-07-28 22:00 4.61 ug/m3 0.33 ug/m3 93.62 ug/m3 8.09 ug/m3 6.44 ug/m3 0.16 mg/m3 25.96 C 78.44 % 2.63 m/s 324.55 Deg -0.01 ug/m3
2021-07-28 21:00 3.44 ug/m3 0.36 ug/m3 97.67 ug/m3 8.71 ug/m3 6.16 ug/m3 0.16 mg/m3 26.04 C 78.96 % 2.79 m/s 167.4 Deg 0 ug/m3
2021-07-28 20:00 4.7 ug/m3 0.35 ug/m3 100.86 ug/m3 8.76 ug/m3 5.96 ug/m3 0.16 mg/m3 26.31 C 77.04 % 2.59 m/s 242.02 Deg 0 ug/m3
2021-07-28 19:00 0.17 ug/m3 0.39 ug/m3 110.5 ug/m3 8.92 ug/m3 5.12 ug/m3 0.16 mg/m3 27.13 C 68.89 % 2.88 m/s 329.74 Deg -0.01 ug/m3
2021-07-28 18:00 2.3 ug/m3 0.49 ug/m3 123.15 ug/m3 16.74 ug/m3 6.91 ug/m3 0.16 mg/m3 27.84 C 62.96 % 3.39 m/s 314.4 Deg 0.15 ug/m3
2021-07-28 17:00 2.8 ug/m3 0.65 ug/m3 124.44 ug/m3 19.56 ug/m3 8.62 ug/m3 0.16 mg/m3 28.76 C 54.5 % 3.53 m/s 309.69 Deg 0.71 ug/m3
2021-07-28 16:00 5.18 ug/m3 0.77 ug/m3 119.99 ug/m3 38.16 ug/m3 6.68 ug/m3 0.16 mg/m3 28.96 C 54.86 % 3.52 m/s 310.7 Deg 0.83 ug/m3
2021-07-28 15:00 2.55 ug/m3 0.81 ug/m3 125.34 ug/m3 16.2 ug/m3 5.63 ug/m3 0.16 mg/m3 28.98 C 51.36 % 3.68 m/s 316.98 Deg 0.77 ug/m3
2021-07-28 14:00 13.2 ug/m3 1.3 ug/m3 107.41 ug/m3 7.34 ug/m3 5.5 ug/m3 0.16 mg/m3 28.35 C 53.4 % 3.75 m/s 319.58 Deg 2.72 ug/m3
2021-07-28 13:00 20.82 ug/m3 2.18 ug/m3 98.6 ug/m3 7.37 ug/m3 7.04 ug/m3 0.16 mg/m3 28.26 C 52.31 % 3.48 m/s 319.41 Deg 4.99 ug/m3
2021-07-28 12:00 15.36 ug/m3 1.69 ug/m3 103.56 ug/m3 7.14 ug/m3 6.68 ug/m3 0.16 mg/m3 28.02 C 56.4 % 3.56 m/s 323.85 Deg 3.42 ug/m3
2021-07-28 11:00 12.79 ug/m3 1.43 ug/m3 108.6 ug/m3 29.94 ug/m3 5.43 ug/m3 0.16 mg/m3 27.82 C 55.04 % 3.88 m/s 339.97 Deg 2.51 ug/m3
2021-07-28 10:00 10.56 ug/m3 1.23 ug/m3 112.77 ug/m3 14.89 ug/m3 5.26 ug/m3 0.15 mg/m3 27.77 C 52.21 % 3.6 m/s 338.63 Deg 1.82 ug/m3
2021-07-28 09:00 7.04 ug/m3 1.23 ug/m3 113.33 ug/m3 7.09 ug/m3 5.48 ug/m3 0.15 mg/m3 27.66 C 53.04 % 3.26 m/s 337.26 Deg 1.03 ug/m3
2021-07-28 08:00 9.94 ug/m3 0.97 ug/m3 95.59 ug/m3 7.2 ug/m3 6.03 ug/m3 0.16 mg/m3 26.47 C 70.5 % 2.85 m/s 343.85 Deg 1.35 ug/m3
2021-07-28 07:00 8.84 ug/m3 0.72 ug/m3 85.64 ug/m3 6.88 ug/m3 6.41 ug/m3 0.16 mg/m3 25.72 C 79.57 % 1.77 m/s 325.73 Deg 0.68 ug/m3
2021-07-28 06:00 6.2 ug/m3 0.64 ug/m3 91.06 ug/m3 7.52 ug/m3 6.09 ug/m3 0.16 mg/m3 25.18 C 83.96 % 1.52 m/s 323.19 Deg 0.06 ug/m3
2021-07-28 05:00 10.99 ug/m3 0.62 ug/m3 76.41 ug/m3 6.72 ug/m3 5.5 ug/m3 0.16 mg/m3 25.21 C 84.31 % 2.27 m/s 343.13 Deg 0 ug/m3
2021-07-28 04:00 3.12 ug/m3 0.82 ug/m3 99.61 ug/m3 5.27 ug/m3 5.56 ug/m3 0.16 mg/m3 25.21 C 83.48 % 3 m/s 344.26 Deg -0.01 ug/m3
2021-07-28 03:00 1.73 ug/m3 0.32 ug/m3 107.82 ug/m3 5.76 ug/m3 5.17 ug/m3 0.15 mg/m3 25.05 C 82.28 % 2.51 m/s 341.3 Deg -0.02 ug/m3
2021-07-28 02:00 0.01 ug/m3 0.24 ug/m3 113.41 ug/m3 5.62 ug/m3 4.88 ug/m3 0.14 mg/m3 24.99 C 84.67 % 1.4 m/s 318.88 Deg -0.02 ug/m3
2021-07-28 01:00 0.69 ug/m3 0.65 ug/m3 123.66 ug/m3 3.82 ug/m3 5.68 ug/m3 0.16 mg/m3 26.26 C 65.05 % 1.76 m/s 342.24 Deg -0.01 ug/m3
2021-07-28 00:00 1.46 ug/m3 0.84 ug/m3 130.29 ug/m3 5.3 ug/m3 5.08 ug/m3 0.15 mg/m3 27.12 C 51.42 % 1.33 m/s 354.24 Deg -0.02 ug/m3
2021-07-27 23:00 1.45 ug/m3 0.82 ug/m3 132.14 ug/m3 6.51 ug/m3 4.92 ug/m3 0.14 mg/m3 27.52 C 41.84 % 0.96 m/s 37.25 Deg -0.01 ug/m3
2021-07-27 22:00 0.86 ug/m3 0.92 ug/m3 128.1 ug/m3 6.61 ug/m3 5.88 ug/m3 0.15 mg/m3 27.57 C 43.53 % 1.32 m/s 55.75 Deg -0.02 ug/m3
2021-07-27 21:00 0.47 ug/m3 0.83 ug/m3 128.1 ug/m3 6.42 ug/m3 5.53 ug/m3 0.15 mg/m3 27.27 C 50.55 % 1.03 m/s 65.07 Deg -0.02 ug/m3
2021-07-27 20:00 0.84 ug/m3 0.6 ug/m3 124.52 ug/m3 5.51 ug/m3 4.81 ug/m3 0.15 mg/m3 26.94 C 60.2 % 0.94 m/s 97.73 Deg -0.02 ug/m3
2021-07-27 19:00 0.71 ug/m3 0.77 ug/m3 129.32 ug/m3 6.66 ug/m3 4.79 ug/m3 0.14 mg/m3 28.81 C 37.74 % 1.2 m/s 301.81 Deg -0.02 ug/m3
2021-07-27 18:00 0.26 ug/m3 0.82 ug/m3 129.09 ug/m3 7.14 ug/m3 4.55 ug/m3 0.15 mg/m3 28.88 C 44.02 % 1.99 m/s 328.5 Deg 0.01 ug/m3
2021-07-27 17:00 0.54 ug/m3 0.81 ug/m3 127.28 ug/m3 7.04 ug/m3 5.29 ug/m3 0.16 mg/m3 27.99 C 64.01 % 2.58 m/s 348.43 Deg 0.08 ug/m3
2021-07-27 16:00 0.33 ug/m3 0.65 ug/m3 120.23 ug/m3 6.39 ug/m3 5.29 ug/m3 0.16 mg/m3 27.59 C 71.29 % 2.86 m/s 335.04 Deg 0.06 ug/m3
2021-07-27 15:00 0.13 ug/m3 0.61 ug/m3 113.1 ug/m3 6.18 ug/m3 5.49 ug/m3 0.16 mg/m3 28.24 C 64.55 % 2.56 m/s 330.07 Deg 0.03 ug/m3
2021-07-27 14:00 0.37 ug/m3 0.63 ug/m3 109.22 ug/m3 7.76 ug/m3 4.88 ug/m3 0.16 mg/m3 28.06 C 68.74 % 3.11 m/s 234.73 Deg 0.06 ug/m3
2021-07-27 13:00 0.15 ug/m3 0.51 ug/m3 106.93 ug/m3 7.47 ug/m3 5.84 ug/m3 0.16 mg/m3 28.32 C 65.44 % 2.76 m/s 128.53 Deg 0.05 ug/m3
2021-07-27 12:00 0.17 ug/m3 0.15 ug/m3 105.5 ug/m3 8.35 ug/m3 6.66 ug/m3 0.17 mg/m3 26.85 C 81.77 % 3.6 m/s 111.92 Deg 0.06 ug/m3
2021-07-27 11:00 0.57 ug/m3 0.15 ug/m3 107.75 ug/m3 10.26 ug/m3 7.05 ug/m3 0.17 mg/m3 26.92 C 81.84 % 2.99 m/s 70.66 Deg 0.1 ug/m3
2021-07-27 10:00 0.99 ug/m3 0.38 ug/m3 107.8 ug/m3 11.78 ug/m3 6.15 ug/m3 0.17 mg/m3 27.14 C 79.76 % 2.45 m/s 114.86 Deg 0.12 ug/m3
2021-07-27 09:00 0.86 ug/m3 0.41 ug/m3 111.12 ug/m3 14.5 ug/m3 7.54 ug/m3 0.17 mg/m3 26.78 C 74.11 % 2.6 m/s 177.57 Deg 0.12 ug/m3
2021-07-27 08:00 4.41 ug/m3 0.27 ug/m3 99.52 ug/m3 16.88 ug/m3 8.19 ug/m3 0.18 mg/m3 25.93 C 85.98 % 2.04 m/s 183.54 Deg 0.53 ug/m3
2021-07-27 07:00 15.26 ug/m3 0.23 ug/m3 74.14 ug/m3 12.48 ug/m3 7.97 ug/m3 0.24 mg/m3 24.74 C 90.36 % 1.29 m/s 116.15 Deg 1.34 ug/m3
2021-07-27 06:00 4.09 ug/m3 0.16 ug/m3 86.84 ug/m3 10.31 ug/m3 6.86 ug/m3 0.18 mg/m3 24.24 C 92.78 % 1.43 m/s 135.31 Deg 0.07 ug/m3
2021-07-27 05:00 1.98 ug/m3 0.14 ug/m3 89.28 ug/m3 8.65 ug/m3 6.07 ug/m3 0.17 mg/m3 24.08 C 92.24 % 0.89 m/s 101.89 Deg -0.01 ug/m3
2021-07-27 04:00 0.1 ug/m3 0.41 ug/m3 92.7 ug/m3 8.4 ug/m3 6.27 ug/m3 0.17 mg/m3 24.46 C 91.52 % 1.43 m/s 143.75 Deg -0.01 ug/m3
2021-07-27 03:00 0.59 ug/m3 0.16 ug/m3 95.37 ug/m3 8.19 ug/m3 6.38 ug/m3 0.17 mg/m3 24.77 C 86.91 % 1.5 m/s 151.84 Deg -0.01 ug/m3
2021-07-27 02:00 0.74 ug/m3 0.27 ug/m3 97.75 ug/m3 7.66 ug/m3 6.73 ug/m3 0.15 mg/m3 24.94 C 79.64 % 1.22 m/s 125.71 Deg -0.02 ug/m3
2021-07-27 01:00 0.53 ug/m3 0.23 ug/m3 96.63 ug/m3 7.97 ug/m3 6.76 ug/m3 0.18 mg/m3 25.24 C 74.53 % 1.66 m/s 124.68 Deg 0 ug/m3
2021-07-27 00:00 0.8 ug/m3 0.23 ug/m3 91.33 ug/m3 9.11 ug/m3 5.81 ug/m3 0.18 mg/m3 25.4 C 75.9 % 1.83 m/s 128.38 Deg -0.01 ug/m3
2021-07-26 23:00 1.47 ug/m3 0.25 ug/m3 88.09 ug/m3 10.41 ug/m3 6.41 ug/m3 0.19 mg/m3 25.63 C 75.67 % 1.65 m/s 146.98 Deg -0 ug/m3
2021-07-26 22:00 2.71 ug/m3 0.33 ug/m3 84.1 ug/m3 11.33 ug/m3 6.53 ug/m3 0.19 mg/m3 26.01 C 74.54 % 1.84 m/s 149.88 Deg -0.01 ug/m3
2021-07-26 21:00 2.12 ug/m3 0.32 ug/m3 87.29 ug/m3 11.54 ug/m3 6.09 ug/m3 0.18 mg/m3 26.5 C 70.49 % 2.58 m/s 142.23 Deg -0.02 ug/m3
2021-07-26 20:00 0.93 ug/m3 0.28 ug/m3 93.02 ug/m3 9.38 ug/m3 5.54 ug/m3 0.17 mg/m3 26.68 C 68.44 % 3.22 m/s 157 Deg -0.01 ug/m3
2021-07-26 19:00 0.84 ug/m3 0.35 ug/m3 95.23 ug/m3 11.49 ug/m3 6 ug/m3 0.16 mg/m3 27.16 C 69.68 % 4.5 m/s 164.28 Deg 0.03 ug/m3
2021-07-26 18:00 1.75 ug/m3 0.47 ug/m3 93.1 ug/m3 10.13 ug/m3 5.7 ug/m3 0.15 mg/m3 27.93 C 67.36 % 4.89 m/s 168.44 Deg 0.18 ug/m3
2021-07-26 17:00 1.03 ug/m3 0.53 ug/m3 96.96 ug/m3 8.79 ug/m3 5.19 ug/m3 0.15 mg/m3 28.61 C 61.76 % 4.53 m/s 167.54 Deg 0.11 ug/m3
2021-07-26 16:00 0.87 ug/m3 0.51 ug/m3 101.75 ug/m3 8.27 ug/m3 3.8 ug/m3 0.14 mg/m3 29.06 C 53.78 % 4.21 m/s 176.41 Deg 0.07 ug/m3
2021-07-26 15:00 1 ug/m3 0.51 ug/m3 98.32 ug/m3 8.4 ug/m3 4.82 ug/m3 0.14 mg/m3 29.78 C 48.05 % 3.42 m/s 173.9 Deg 0.13 ug/m3
2021-07-26 14:00 0.55 ug/m3 0.49 ug/m3 104.31 ug/m3 9.96 ug/m3 5.13 ug/m3 0.15 mg/m3 28.52 C 66.63 % 2.87 m/s 314.95 Deg 0.07 ug/m3
2021-07-26 13:00 1.58 ug/m3 0.61 ug/m3 117.67 ug/m3 11.22 ug/m3 6.97 ug/m3 0.16 mg/m3 28.14 C 68.55 % 2.95 m/s 295.06 Deg 0.14 ug/m3
2021-07-26 12:00 1.48 ug/m3 0.69 ug/m3 109.58 ug/m3 9.08 ug/m3 6.65 ug/m3 0.15 mg/m3 29.13 C 58.61 % 2.27 m/s 170.14 Deg 0.11 ug/m3
2021-07-26 11:00 0.85 ug/m3 0.6 ug/m3 105.27 ug/m3 11.54 ug/m3 5.53 ug/m3 0.14 mg/m3 28.47 C 54.49 % 4.51 m/s 177.54 Deg 0.05 ug/m3
2021-07-26 10:00 1 ug/m3 0.43 ug/m3 99.57 ug/m3 10.37 ug/m3 4.13 ug/m3 0.14 mg/m3 28.06 C 60.51 % 4.6 m/s 165.63 Deg 0.1 ug/m3
2021-07-26 09:00 0.51 ug/m3 0.31 ug/m3 97.23 ug/m3 11.37 ug/m3 4.85 ug/m3 0.14 mg/m3 26.79 C 75.15 % 5.34 m/s 170.81 Deg 0.08 ug/m3
2021-07-26 08:00 1.38 ug/m3 0.29 ug/m3 94.04 ug/m3 14.2 ug/m3 5.01 ug/m3 0.14 mg/m3 26.3 C 79.8 % 4.1 m/s 182.15 Deg 0.16 ug/m3
2021-07-26 07:00 2.5 ug/m3 0.23 ug/m3 93.68 ug/m3 9.74 ug/m3 5.09 ug/m3 0.14 mg/m3 26.22 C 68.28 % 2.52 m/s 158.94 Deg 0.11 ug/m3
2021-07-26 06:00 3.23 ug/m3 0.25 ug/m3 96.94 ug/m3 6.21 ug/m3 4.53 ug/m3 0.13 mg/m3 26.12 C 55.45 % 4.58 m/s 143.23 Deg 0.03 ug/m3
2021-07-26 05:00 2.86 ug/m3 0.26 ug/m3 93.25 ug/m3 6.51 ug/m3 4.67 ug/m3 0.13 mg/m3 25.81 C 57.69 % 3.41 m/s 127.19 Deg -0.01 ug/m3
2021-07-26 04:00 0.59 ug/m3 0.39 ug/m3 90.68 ug/m3 6.24 ug/m3 4.58 ug/m3 0.13 mg/m3 25.37 C 74.2 % 3.38 m/s 136.54 Deg -0.02 ug/m3
2021-07-26 03:00 2.1 ug/m3 0.2 ug/m3 90.93 ug/m3 5.43 ug/m3 4.23 ug/m3 0.13 mg/m3 25.67 C 73.61 % 3.35 m/s 146.46 Deg -0.02 ug/m3
2021-07-26 02:00 2.42 ug/m3 0.3 ug/m3 95.24 ug/m3 5.27 ug/m3 4.8 ug/m3 0.12 mg/m3 26.24 C 59.06 % 3.2 m/s 152.02 Deg -0.02 ug/m3
2021-07-26 01:00 4.16 ug/m3 0.38 ug/m3 90.29 ug/m3 6.18 ug/m3 4.37 ug/m3 0.14 mg/m3 26.09 C 59.92 % 2.58 m/s 147.1 Deg -0.02 ug/m3
2021-07-26 00:00 7.75 ug/m3 0.37 ug/m3 83.67 ug/m3 6.27 ug/m3 5.14 ug/m3 0.14 mg/m3 25.94 C 68.3 % 2.37 m/s 136.12 Deg -0.01 ug/m3
2021-07-25 23:00 1.07 ug/m3 0.16 ug/m3 87.21 ug/m3 5.88 ug/m3 5.08 ug/m3 0.13 mg/m3 26.02 C 71.84 % 3.36 m/s 140.76 Deg -0.02 ug/m3
2021-07-25 22:00 1.04 ug/m3 0.17 ug/m3 85.69 ug/m3 7.84 ug/m3 4.73 ug/m3 0.14 mg/m3 26 C 76.19 % 3.81 m/s 145.54 Deg -0.02 ug/m3
2021-07-25 21:00 4.12 ug/m3 0.31 ug/m3 80.07 ug/m3 7.63 ug/m3 4.58 ug/m3 0.14 mg/m3 26.02 C 78.17 % 3.5 m/s 165.87 Deg -0.01 ug/m3
2021-07-25 20:00 2.27 ug/m3 0.22 ug/m3 81.22 ug/m3 7.9 ug/m3 4.55 ug/m3 0.14 mg/m3 26.19 C 77.12 % 2.39 m/s 178.15 Deg -0 ug/m3
2021-07-25 19:00 7.26 ug/m3 0.54 ug/m3 84.07 ug/m3 4.89 ug/m3 3.96 ug/m3 0.14 mg/m3 27.46 C 64.4 % 2.27 m/s 168.85 Deg 0.19 ug/m3
2021-07-25 18:00 4.76 ug/m3 0.38 ug/m3 104.47 ug/m3 5.21 ug/m3 4.18 ug/m3 0.13 mg/m3 29.76 C 39.19 % 2.25 m/s 206.68 Deg 0.01 ug/m3
2021-07-25 17:00 2.73 ug/m3 0.31 ug/m3 103.25 ug/m3 6.53 ug/m3 4.39 ug/m3 0.14 mg/m3 29.45 C 47.18 % 1.86 m/s 277.47 Deg 0.05 ug/m3
2021-07-25 16:00 1.74 ug/m3 0.28 ug/m3 97.14 ug/m3 6.63 ug/m3 4.27 ug/m3 0.13 mg/m3 28.85 C 51.03 % 3.25 m/s 225.06 Deg 0.03 ug/m3
2021-07-25 15:00 2.04 ug/m3 0.28 ug/m3 98.52 ug/m3 7.33 ug/m3 4.86 ug/m3 0.13 mg/m3 28.38 C 52.83 % 4.16 m/s 224.17 Deg 0.09 ug/m3
2021-07-25 14:00 2.53 ug/m3 0.8 ug/m3 101.3 ug/m3 6.58 ug/m3 4.33 ug/m3 0.13 mg/m3 28.18 C 53.56 % 4.27 m/s 222.34 Deg 0.2 ug/m3
2021-07-25 13:00 1.23 ug/m3 0.19 ug/m3 98.62 ug/m3 6.46 ug/m3 4.37 ug/m3 0.13 mg/m3 27.71 C 57.07 % 3.93 m/s 213.57 Deg 0.04 ug/m3
2021-07-25 12:00 1.07 ug/m3 0.25 ug/m3 97.4 ug/m3 6.9 ug/m3 4.68 ug/m3 0.13 mg/m3 27.17 C 64.08 % 4.29 m/s 214.96 Deg 0.04 ug/m3
2021-07-25 11:00 2.11 ug/m3 0.27 ug/m3 102.66 ug/m3 6.77 ug/m3 5.2 ug/m3 0.13 mg/m3 27.76 C 51.41 % 4.55 m/s 208.64 Deg 0.07 ug/m3
2021-07-25 10:00 1.72 ug/m3 0.25 ug/m3 102.52 ug/m3 6.94 ug/m3 4.82 ug/m3 0.13 mg/m3 27.01 C 56.9 % 4.19 m/s 215.25 Deg 0.02 ug/m3
2021-07-25 09:00 1.46 ug/m3 0.3 ug/m3 104.58 ug/m3 7.69 ug/m3 4.34 ug/m3 0.13 mg/m3 26.84 C 50.26 % 2.84 m/s 212.84 Deg 0.02 ug/m3
2021-07-25 08:00 0.56 ug/m3 0.32 ug/m3 99.62 ug/m3 6.27 ug/m3 4.48 ug/m3 0.13 mg/m3 25.97 C 64.07 % 1.84 m/s 209.05 Deg 0.04 ug/m3
2021-07-25 07:00 0.24 ug/m3 0.26 ug/m3 91.81 ug/m3 6.11 ug/m3 4.73 ug/m3 0.15 mg/m3 24.94 C 81.74 % 0.92 m/s 211.54 Deg 0.04 ug/m3
2021-07-25 06:00 0.11 ug/m3 0.24 ug/m3 97.84 ug/m3 6.86 ug/m3 4.51 ug/m3 0.14 mg/m3 24.42 C 85.39 % 0.91 m/s 219.11 Deg -0.03 ug/m3
2021-07-25 05:00 0.63 ug/m3 0.33 ug/m3 99.04 ug/m3 6.45 ug/m3 4.98 ug/m3 0.13 mg/m3 24.35 C 83.98 % 1.15 m/s 204.42 Deg -0.01 ug/m3
2021-07-25 04:00 -0.04 ug/m3 0.43 ug/m3 101.71 ug/m3 5.62 ug/m3 4.71 ug/m3 0.13 mg/m3 24.54 C 77.52 % 1.06 m/s 215.19 Deg -0.02 ug/m3
2021-07-25 03:00 0.75 ug/m3 0.17 ug/m3 93.58 ug/m3 5.75 ug/m3 4.27 ug/m3 0.13 mg/m3 24.09 C 86.94 % 1.58 m/s 220.83 Deg -0.02 ug/m3
2021-07-25 02:00 0.04 ug/m3 0.19 ug/m3 87.81 ug/m3 6 ug/m3 4.25 ug/m3 0.12 mg/m3 24.12 C 88.22 % 2.45 m/s 212.95 Deg -0.02 ug/m3
2021-07-25 01:00 0.04 ug/m3 0.25 ug/m3 88.61 ug/m3 6.43 ug/m3 4.98 ug/m3 0.13 mg/m3 24.28 C 82.26 % 2.51 m/s 214.1 Deg -0.03 ug/m3
2021-07-25 00:00 -0.01 ug/m3 0.18 ug/m3 91.04 ug/m3 6.53 ug/m3 4.87 ug/m3 0.13 mg/m3 24.23 C 85.76 % 2.1 m/s 208.75 Deg -0.01 ug/m3
2021-07-24 23:00 0.01 ug/m3 0.2 ug/m3 102.05 ug/m3 6.8 ug/m3 4.41 ug/m3 0.13 mg/m3 24.66 C 83.67 % 1.89 m/s 225.17 Deg -0.02 ug/m3
2021-07-24 22:00 -0.07 ug/m3 0.16 ug/m3 111.5 ug/m3 6.5 ug/m3 4.62 ug/m3 0.13 mg/m3 24.82 C 83.96 % 1.99 m/s 238.27 Deg -0.02 ug/m3
2021-07-24 21:00 0.15 ug/m3 0.15 ug/m3 107.99 ug/m3 6.08 ug/m3 4.64 ug/m3 0.14 mg/m3 25.08 C 82.28 % 2.19 m/s 239.55 Deg -0.01 ug/m3
2021-07-24 20:00 0.36 ug/m3 0.19 ug/m3 100.93 ug/m3 5.94 ug/m3 4.57 ug/m3 0.13 mg/m3 25.56 C 75.49 % 2.29 m/s 243.17 Deg -0.02 ug/m3
2021-07-24 19:00 0.42 ug/m3 0.25 ug/m3 100.24 ug/m3 5.97 ug/m3 4.13 ug/m3 0.13 mg/m3 26.2 C 71.11 % 2.98 m/s 237.89 Deg 0 ug/m3
2021-07-24 18:00 0.54 ug/m3 0.38 ug/m3 98.29 ug/m3 5.7 ug/m3 5.61 ug/m3 0.13 mg/m3 26.59 C 70.97 % 3.51 m/s 232.83 Deg 0.03 ug/m3
2021-07-24 17:00 0.34 ug/m3 0.35 ug/m3 95.53 ug/m3 5.27 ug/m3 4.92 ug/m3 0.14 mg/m3 26.63 C 72.9 % 3.91 m/s 240.96 Deg 0.01 ug/m3
2021-07-24 16:00 0.48 ug/m3 0.32 ug/m3 97.41 ug/m3 5.3 ug/m3 5.28 ug/m3 0.13 mg/m3 26.79 C 72.74 % 4.09 m/s 240.95 Deg 0.02 ug/m3
2021-07-24 15:00 0.57 ug/m3 0.38 ug/m3 105.6 ug/m3 6.4 ug/m3 5.5 ug/m3 0.14 mg/m3 26.72 C 72.04 % 4.36 m/s 241.4 Deg 0.03 ug/m3
2021-07-24 14:00 4.31 ug/m3 0.47 ug/m3 111.36 ug/m3 5.41 ug/m3 5.25 ug/m3 0.14 mg/m3 26.55 C 76.37 % 4.57 m/s 236.63 Deg 0.8 ug/m3
2021-07-24 13:00 1.62 ug/m3 0.56 ug/m3 107.98 ug/m3 4.3 ug/m3 5.06 ug/m3 0.14 mg/m3 26.29 C 76.8 % 4.6 m/s 238.72 Deg 0.13 ug/m3
2021-07-24 12:00 3.25 ug/m3 0.67 ug/m3 109.62 ug/m3 3.88 ug/m3 5.02 ug/m3 0.13 mg/m3 27.63 C 56.31 % 3.62 m/s 266.69 Deg 0.09 ug/m3
2021-07-24 11:00 2.71 ug/m3 0.64 ug/m3 107.64 ug/m3 5.49 ug/m3 4.67 ug/m3 0.13 mg/m3 27.67 C 45.65 % 3.51 m/s 319.67 Deg 0.06 ug/m3
2021-07-24 10:00 6.46 ug/m3 1.28 ug/m3 92.6 ug/m3 6.24 ug/m3 6.03 ug/m3 0.13 mg/m3 26.05 C 65.23 % 3.87 m/s 330.58 Deg 1.81 ug/m3
2021-07-24 09:00 7.79 ug/m3 1.22 ug/m3 84.92 ug/m3 6.98 ug/m3 5.5 ug/m3 0.14 mg/m3 25.09 C 80.36 % 3.91 m/s 320.37 Deg 1.96 ug/m3
2021-07-24 08:00 2.92 ug/m3 0.43 ug/m3 93.06 ug/m3 7.34 ug/m3 4.71 ug/m3 0.14 mg/m3 24.61 C 88.31 % 3.39 m/s 314.01 Deg 0.45 ug/m3
2021-07-24 07:00 1.66 ug/m3 0.39 ug/m3 100.55 ug/m3 7.82 ug/m3 5.01 ug/m3 0.15 mg/m3 24.38 C 86.57 % 2.84 m/s 300.91 Deg 0.12 ug/m3
2021-07-24 06:00 1.05 ug/m3 0.26 ug/m3 105.5 ug/m3 7.82 ug/m3 5.06 ug/m3 0.15 mg/m3 23.96 C 90.01 % 3.1 m/s 288.93 Deg 0.01 ug/m3
2021-07-24 05:00 0.6 ug/m3 0.22 ug/m3 104.23 ug/m3 6.96 ug/m3 4.6 ug/m3 0.13 mg/m3 24 C 88.64 % 3.33 m/s 266.88 Deg -0.12 ug/m3
2021-07-24 04:00 0.46 ug/m3 0.23 ug/m3 103.85 ug/m3 6.5 ug/m3 4.67 ug/m3 0.13 mg/m3 24.19 C 85.52 % 3.95 m/s 254.83 Deg -0.26 ug/m3
2021-07-24 03:00 0.91 ug/m3 0.18 ug/m3 101.74 ug/m3 7.06 ug/m3 4.95 ug/m3 0.13 mg/m3 24.23 C 87.77 % 3.7 m/s 244.61 Deg -0.27 ug/m3
2021-07-24 02:00 1.75 ug/m3 0.24 ug/m3 102.22 ug/m3 6.31 ug/m3 5.37 ug/m3 0.11 mg/m3 24.4 C 83.93 % 3.28 m/s 238.48 Deg -0.26 ug/m3
2021-07-24 01:00 4.07 ug/m3 0.29 ug/m3 101.02 ug/m3 6.11 ug/m3 4.65 ug/m3 0.12 mg/m3 24.38 C 82.17 % 3.05 m/s 233.93 Deg -0.27 ug/m3
2021-07-24 00:00 0.91 ug/m3 0.24 ug/m3 101.05 ug/m3 6.5 ug/m3 5.27 ug/m3 0.13 mg/m3 24.41 C 84.32 % 3.06 m/s 220.87 Deg -0.25 ug/m3
2021-07-23 23:00 3.3 ug/m3 0.31 ug/m3 96.61 ug/m3 6.45 ug/m3 5.59 ug/m3 0.12 mg/m3 24.48 C 80.59 % 2.29 m/s 213.21 Deg -0.27 ug/m3
2021-07-23 22:00 3.84 ug/m3 0.43 ug/m3 100.66 ug/m3 7.09 ug/m3 4.99 ug/m3 0.12 mg/m3 24.91 C 72.5 % 1.35 m/s 209.21 Deg -0.26 ug/m3
2021-07-23 21:00 3.45 ug/m3 0.44 ug/m3 107.06 ug/m3 5.7 ug/m3 5.1 ug/m3 0.12 mg/m3 25.89 C 58.77 % 1.05 m/s 261.18 Deg -0.27 ug/m3
2021-07-23 20:00 N/A 0.4 ug/m3 111.11 ug/m3 6.4 ug/m3 5.63 ug/m3 0.12 mg/m3 25.84 C 59.68 % 0.47 m/s 205.83 Deg N/A
2021-07-23 19:00 N/A 0.46 ug/m3 111.77 ug/m3 11.31 ug/m3 5.42 ug/m3 0.12 mg/m3 26.39 C 67.79 % 1.81 m/s 271.46 Deg N/A
2021-07-23 18:00 N/A 0.51 ug/m3 115.85 ug/m3 8.22 ug/m3 6.32 ug/m3 0.12 mg/m3 26.75 C 65.64 % 3.05 m/s 304.9 Deg N/A
2021-07-23 17:00 N/A 0.61 ug/m3 117.77 ug/m3 8.31 ug/m3 6.6 ug/m3 0.12 mg/m3 26.48 C 73.06 % 3.46 m/s 252.79 Deg N/A
2021-07-23 16:00 N/A 0.84 ug/m3 120.26 ug/m3 8.86 ug/m3 6.38 ug/m3 0.13 mg/m3 26.22 C 76.16 % 4.19 m/s 262.36 Deg N/A
2021-07-23 15:00 N/A 0.81 ug/m3 118.66 ug/m3 9.35 ug/m3 7.1 ug/m3 0.13 mg/m3 26.44 C 77.67 % 4.45 m/s 255.26 Deg N/A
2021-07-23 14:00 N/A 0.98 ug/m3 125.05 ug/m3 10.42 ug/m3 7.23 ug/m3 0.14 mg/m3 26.77 C 75.58 % 3.6 m/s 258.48 Deg N/A
2021-07-23 13:00 N/A 1.03 ug/m3 130.08 ug/m3 11.28 ug/m3 7.04 ug/m3 0.13 mg/m3 27.03 C 67.37 % 3.67 m/s 242.34 Deg N/A
2021-07-23 12:00 N/A 1.21 ug/m3 126.86 ug/m3 11.81 ug/m3 6.68 ug/m3 0.13 mg/m3 27.8 C 63.41 % 2.61 m/s 261.66 Deg N/A
2021-07-23 11:00 N/A 1.12 ug/m3 117.33 ug/m3 12.54 ug/m3 6.85 ug/m3 0.13 mg/m3 26.65 C 74.64 % 2.55 m/s 297.59 Deg N/A
2021-07-23 10:00 N/A 1.15 ug/m3 114.07 ug/m3 14.28 ug/m3 6.38 ug/m3 0.13 mg/m3 26.84 C 73.21 % 2.33 m/s 291.09 Deg N/A
2021-07-23 09:00 N/A 1.29 ug/m3 103.57 ug/m3 15.67 ug/m3 6.91 ug/m3 0.14 mg/m3 26.93 C 70.81 % 2 m/s 261.11 Deg N/A
2021-07-23 08:00 N/A 1.08 ug/m3 96.44 ug/m3 15.3 ug/m3 7.5 ug/m3 0.14 mg/m3 26.67 C 69.88 % 2.33 m/s 89.18 Deg N/A
2021-07-23 07:00 N/A 0.77 ug/m3 73.74 ug/m3 13.24 ug/m3 7.43 ug/m3 0.13 mg/m3 24.6 C 86.32 % 2.8 m/s 65.52 Deg N/A
2021-07-23 06:00 N/A 0.54 ug/m3 78.17 ug/m3 15.25 ug/m3 7.61 ug/m3 0.13 mg/m3 23.52 C 93.85 % 3.55 m/s 63.42 Deg N/A
2021-07-23 05:00 N/A 0.56 ug/m3 63.64 ug/m3 14.5 ug/m3 7.13 ug/m3 0.13 mg/m3 23.18 C 95.13 % 3.32 m/s 48.48 Deg N/A
2021-07-23 04:00 N/A 0.51 ug/m3 75.53 ug/m3 12.94 ug/m3 6.1 ug/m3 0.13 mg/m3 23.53 C 93.59 % 4.21 m/s 27.88 Deg N/A
2021-07-23 03:00 N/A 0.51 ug/m3 88.31 ug/m3 13.18 ug/m3 6.59 ug/m3 0.13 mg/m3 23.79 C 92.2 % 5.06 m/s 40.42 Deg N/A
2021-07-23 02:00 N/A 0.69 ug/m3 88.87 ug/m3 15.41 ug/m3 6.44 ug/m3 0.11 mg/m3 23.9 C 92.1 % 4.97 m/s 348.95 Deg N/A
2021-07-23 01:00 N/A 0.71 ug/m3 89.59 ug/m3 14.03 ug/m3 5.73 ug/m3 0.13 mg/m3 24.36 C 86.21 % 4 m/s 318.47 Deg N/A
2021-07-23 00:00 N/A 0.55 ug/m3 100.25 ug/m3 11.68 ug/m3 5.55 ug/m3 0.12 mg/m3 24.94 C 80.85 % 4.47 m/s 274.85 Deg N/A
2021-07-22 23:00 N/A 0.37 ug/m3 111.03 ug/m3 10.71 ug/m3 5.6 ug/m3 0.13 mg/m3 25.32 C 77.36 % 4.42 m/s 248.61 Deg N/A
2021-07-22 22:00 N/A 0.34 ug/m3 109.81 ug/m3 11.55 ug/m3 6.09 ug/m3 0.12 mg/m3 25.09 C 80.53 % 3.16 m/s 218.28 Deg N/A
2021-07-22 21:00 N/A 0.41 ug/m3 112.16 ug/m3 9.85 ug/m3 5.96 ug/m3 0.12 mg/m3 25.24 C 77.44 % 3.86 m/s 244.54 Deg N/A
2021-07-22 20:00 N/A 0.43 ug/m3 114.72 ug/m3 10.28 ug/m3 6.53 ug/m3 0.13 mg/m3 25.25 C 78.15 % 3.34 m/s 249.82 Deg N/A
2021-07-22 19:00 N/A 0.62 ug/m3 124.69 ug/m3 10.74 ug/m3 5.6 ug/m3 0.13 mg/m3 25.8 C 76.08 % 3.73 m/s 267.37 Deg N/A
2021-07-22 18:00 N/A 0.85 ug/m3 128.65 ug/m3 10.34 ug/m3 6.23 ug/m3 0.13 mg/m3 26.13 C 72.16 % 4.25 m/s 282.55 Deg N/A
2021-07-22 17:00 N/A 0.72 ug/m3 128.83 ug/m3 8.71 ug/m3 5.16 ug/m3 0.14 mg/m3 26.26 C 69.5 % 5.06 m/s 281.88 Deg N/A
2021-07-22 16:00 N/A 0.48 ug/m3 118.04 ug/m3 5.78 ug/m3 4.8 ug/m3 0.13 mg/m3 26.02 C 80.9 % 5.41 m/s 268.12 Deg N/A
2021-07-22 15:00 N/A 0.38 ug/m3 105.19 ug/m3 6.35 ug/m3 5.82 ug/m3 0.12 mg/m3 26.52 C 73.66 % 5.08 m/s 248.19 Deg N/A
2021-07-22 14:00 N/A 0.56 ug/m3 113.12 ug/m3 6.15 ug/m3 5.3 ug/m3 0.12 mg/m3 26.56 C 70.35 % 4.84 m/s 241.62 Deg N/A
2021-07-22 13:00 N/A 0.51 ug/m3 112.33 ug/m3 5.88 ug/m3 4.28 ug/m3 0.13 mg/m3 27.5 C 61.26 % 3.86 m/s 254.51 Deg N/A
2021-07-22 12:00 N/A 0.51 ug/m3 110.78 ug/m3 7.82 ug/m3 4.78 ug/m3 0.13 mg/m3 27.07 C 63.58 % 3.23 m/s 253.47 Deg N/A
2021-07-22 11:00 N/A 0.53 ug/m3 110.77 ug/m3 7.95 ug/m3 6.15 ug/m3 0.13 mg/m3 25.96 C 70.71 % 3.31 m/s 271.91 Deg N/A
2021-07-22 10:00 N/A 0.38 ug/m3 100.09 ug/m3 9.4 ug/m3 6.38 ug/m3 0.13 mg/m3 24.63 C 87.43 % 3.03 m/s 323.2 Deg N/A
2021-07-22 09:00 N/A 0.38 ug/m3 97.25 ug/m3 8.36 ug/m3 6.58 ug/m3 0.13 mg/m3 24.38 C 91.72 % 3.73 m/s 337.23 Deg N/A
2021-07-22 08:00 N/A 0.34 ug/m3 101.32 ug/m3 8.7 ug/m3 7.05 ug/m3 0.13 mg/m3 24.18 C 91.71 % 3.14 m/s 316.17 Deg N/A
2021-07-22 07:00 N/A 0.3 ug/m3 99.64 ug/m3 9.41 ug/m3 7.18 ug/m3 0.13 mg/m3 23.64 C 94.1 % 2.98 m/s 287.1 Deg N/A
2021-07-22 06:00 N/A 0.38 ug/m3 91.2 ug/m3 9.72 ug/m3 7.78 ug/m3 0.13 mg/m3 23.27 C 95.41 % 2.43 m/s 287.29 Deg N/A
2021-07-22 05:00 N/A 0.4 ug/m3 103.27 ug/m3 8.56 ug/m3 6.99 ug/m3 0.13 mg/m3 23.49 C 93.67 % 2.07 m/s 292.15 Deg N/A
2021-07-22 04:00 N/A 0.41 ug/m3 111.62 ug/m3 5.29 ug/m3 5.4 ug/m3 0.13 mg/m3 24.06 C 78.17 % 1.57 m/s 266.34 Deg N/A
2021-07-22 03:00 N/A 0.37 ug/m3 117.01 ug/m3 5.43 ug/m3 5.01 ug/m3 0.12 mg/m3 25.41 C 53.55 % 1.06 m/s 92.81 Deg N/A
2021-07-22 02:00 N/A 0.55 ug/m3 117.21 ug/m3 6.61 ug/m3 5.69 ug/m3 0.12 mg/m3 25.2 C 56.6 % 1.1 m/s 51.67 Deg N/A
2021-07-22 01:00 N/A 0.52 ug/m3 112.22 ug/m3 7.52 ug/m3 6.76 ug/m3 0.14 mg/m3 24.71 C 63.68 % 2.07 m/s 58.97 Deg N/A
2021-07-22 00:00 N/A 0.53 ug/m3 113.38 ug/m3 6.99 ug/m3 6.37 ug/m3 0.14 mg/m3 24.36 C 69.99 % 1.93 m/s 58.5 Deg N/A
2021-07-21 23:00 N/A 0.64 ug/m3 119.55 ug/m3 7.77 ug/m3 6 ug/m3 0.14 mg/m3 24.47 C 70.69 % 1.49 m/s 46.03 Deg N/A
2021-07-21 22:00 N/A 0.61 ug/m3 121.59 ug/m3 7.52 ug/m3 6.27 ug/m3 0.15 mg/m3 24.17 C 75.19 % 1 m/s 60.58 Deg N/A
2021-07-21 21:00 N/A 0.53 ug/m3 119.27 ug/m3 6.56 ug/m3 5.96 ug/m3 0.15 mg/m3 23.99 C 81.11 % 1.27 m/s 214.23 Deg N/A
2021-07-21 20:00 N/A 0.54 ug/m3 122.03 ug/m3 6.78 ug/m3 5.96 ug/m3 0.15 mg/m3 24.07 C 84.91 % 1.99 m/s 350.38 Deg N/A
2021-07-21 19:00 N/A 0.54 ug/m3 126.03 ug/m3 6.99 ug/m3 6.08 ug/m3 0.15 mg/m3 24.49 C 86.42 % 3.52 m/s 347.47 Deg N/A
2021-07-21 18:00 N/A 0.49 ug/m3 118.24 ug/m3 9.3 ug/m3 6.45 ug/m3 0.16 mg/m3 25.2 C 86.12 % 3.61 m/s 328.82 Deg N/A
2021-07-21 17:00 N/A 0.57 ug/m3 101.28 ug/m3 9.4 ug/m3 7.17 ug/m3 0.16 mg/m3 25.43 C 83.56 % 3.44 m/s 247.99 Deg N/A
2021-07-21 16:00 N/A 0.67 ug/m3 107.21 ug/m3 8.41 ug/m3 7.4 ug/m3 0.16 mg/m3 25.37 C 84.59 % 3.71 m/s 236.23 Deg N/A
2021-07-21 15:00 N/A 0.49 ug/m3 99.02 ug/m3 8.16 ug/m3 5.83 ug/m3 0.15 mg/m3 25.43 C 85.13 % 4.21 m/s 227.89 Deg N/A
2021-07-21 14:00 N/A 0.47 ug/m3 99.3 ug/m3 6.63 ug/m3 6.36 ug/m3 0.15 mg/m3 25.2 C 87.2 % 4.28 m/s 222.38 Deg N/A
2021-07-21 13:00 N/A 0.38 ug/m3 95.23 ug/m3 6.16 ug/m3 5.41 ug/m3 0.15 mg/m3 25.06 C 88.44 % 4.01 m/s 232.87 Deg N/A
2021-07-21 12:00 N/A 0.34 ug/m3 94.94 ug/m3 6.47 ug/m3 4.94 ug/m3 0.15 mg/m3 24.89 C 89.86 % 4.08 m/s 231.27 Deg N/A
2021-07-21 11:00 N/A 0.34 ug/m3 101.64 ug/m3 6.37 ug/m3 5.28 ug/m3 0.14 mg/m3 25.26 C 88.3 % 3.36 m/s 248.72 Deg N/A
2021-07-21 10:00 N/A 0.32 ug/m3 104.25 ug/m3 8.65 ug/m3 5.64 ug/m3 0.15 mg/m3 24.84 C 88.51 % 3.11 m/s 226.63 Deg N/A
2021-07-21 09:00 N/A 0.44 ug/m3 108.93 ug/m3 12.83 ug/m3 5.62 ug/m3 0.14 mg/m3 25.41 C 82.41 % 1.94 m/s 218.58 Deg N/A
2021-07-21 08:00 N/A 0.4 ug/m3 105.52 ug/m3 8.75 ug/m3 5.51 ug/m3 0.15 mg/m3 25.06 C 83.15 % 1.52 m/s 201.51 Deg N/A
2021-07-21 07:00 N/A 0.22 ug/m3 102.77 ug/m3 7.73 ug/m3 4.89 ug/m3 0.15 mg/m3 23.86 C 94.03 % 1.16 m/s 238.51 Deg N/A
2021-07-21 06:00 N/A 0.23 ug/m3 103.77 ug/m3 7.1 ug/m3 5.19 ug/m3 0.15 mg/m3 23.4 C 93.6 % 1.59 m/s 262.91 Deg N/A
2021-07-21 05:00 N/A 0.37 ug/m3 109.91 ug/m3 7.1 ug/m3 5.46 ug/m3 0.14 mg/m3 23.45 C 89.6 % 1.75 m/s 276.37 Deg N/A
2021-07-21 04:00 N/A 0.68 ug/m3 120.82 ug/m3 7.49 ug/m3 5.14 ug/m3 0.14 mg/m3 23.96 C 78.05 % 1.63 m/s 263.29 Deg N/A
2021-07-21 03:00 N/A 1.01 ug/m3 127.05 ug/m3 8.01 ug/m3 5.59 ug/m3 0.13 mg/m3 23.9 C 74.02 % 0.86 m/s 266.92 Deg N/A
2021-07-21 02:00 N/A 0.57 ug/m3 125.51 ug/m3 9.02 ug/m3 6.51 ug/m3 0.14 mg/m3 23.33 C 91.31 % 0.7 m/s 33.15 Deg N/A
2021-07-21 01:00 N/A 0.52 ug/m3 122.38 ug/m3 10.96 ug/m3 12.43 ug/m3 0.15 mg/m3 23.43 C 90.42 % 1.43 m/s 30.88 Deg N/A
2021-07-21 00:00 N/A 0.62 ug/m3 128.65 ug/m3 11.25 ug/m3 9.97 ug/m3 0.15 mg/m3 23.52 C 89.52 % 1.41 m/s 101.05 Deg N/A
2021-07-20 23:00 N/A 0.63 ug/m3 129.06 ug/m3 8.91 ug/m3 7.6 ug/m3 0.16 mg/m3 23.63 C 88.42 % 1.29 m/s 68.19 Deg N/A
2021-07-20 22:00 N/A 0.58 ug/m3 125.96 ug/m3 9.48 ug/m3 6.35 ug/m3 0.15 mg/m3 23.75 C 87.27 % 1.57 m/s 33.91 Deg N/A
2021-07-20 21:00 N/A 0.59 ug/m3 129.88 ug/m3 11.71 ug/m3 6.31 ug/m3 0.16 mg/m3 23.99 C 86.06 % 2.53 m/s 4.12 Deg N/A
2021-07-20 20:00 N/A 0.52 ug/m3 119.39 ug/m3 10.01 ug/m3 6.66 ug/m3 0.15 mg/m3 24.21 C 86.63 % 2.87 m/s 48.83 Deg N/A
2021-07-20 19:00 N/A 0.83 ug/m3 114.72 ug/m3 9.1 ug/m3 6.86 ug/m3 0.15 mg/m3 24.99 C 76.37 % 3.37 m/s 13.64 Deg N/A
2021-07-20 18:00 N/A 1.02 ug/m3 113.89 ug/m3 8.71 ug/m3 6.76 ug/m3 0.15 mg/m3 24.95 C 77.8 % 4.02 m/s 12.01 Deg N/A
2021-07-20 17:00 N/A 0.85 ug/m3 117.37 ug/m3 9.66 ug/m3 7.03 ug/m3 0.15 mg/m3 25.43 C 75.03 % 4.13 m/s 13.67 Deg N/A
2021-07-20 16:00 N/A 0.71 ug/m3 117.75 ug/m3 9.96 ug/m3 6.99 ug/m3 0.15 mg/m3 25.45 C 76.36 % 4.38 m/s 12.01 Deg N/A
2021-07-20 15:00 N/A 0.69 ug/m3 118.61 ug/m3 10.13 ug/m3 6.84 ug/m3 0.16 mg/m3 26.53 C 73.17 % 3.37 m/s 87.53 Deg N/A
2021-07-20 14:00 N/A 0.91 ug/m3 119.33 ug/m3 12.59 ug/m3 6.87 ug/m3 0.15 mg/m3 26.91 C 69.22 % 4.41 m/s 52.61 Deg N/A
2021-07-20 13:00 N/A 0.53 ug/m3 122.82 ug/m3 14.97 ug/m3 8.38 ug/m3 0.16 mg/m3 26.15 C 76.61 % 2.96 m/s 199.98 Deg N/A
2021-07-20 12:00 N/A 0.53 ug/m3 119.84 ug/m3 18.51 ug/m3 8.73 ug/m3 0.16 mg/m3 26.29 C 75.54 % 2.76 m/s 151.38 Deg N/A
2021-07-20 11:00 N/A 0.48 ug/m3 112.22 ug/m3 18.03 ug/m3 8.43 ug/m3 0.16 mg/m3 25.53 C 78.77 % 5.25 m/s 50.62 Deg N/A
2021-07-20 10:00 N/A 0.42 ug/m3 106.87 ug/m3 N/A N/A 0.16 mg/m3 24.48 C 84.26 % 4.5 m/s 31.42 Deg N/A
2021-07-20 09:00 N/A 0.41 ug/m3 103.31 ug/m3 N/A N/A 0.16 mg/m3 23.78 C 86.71 % 1.34 m/s 181.58 Deg N/A
2021-07-20 08:00 N/A N/A 97.76 ug/m3 N/A N/A 0.16 mg/m3 22.67 C 92.56 % 2.28 m/s 301.36 Deg N/A
2021-07-20 07:00 N/A 0.1 ug/m3 90.3 ug/m3 15.7 ug/m3 6.7 ug/m3 0.16 mg/m3 22.73 C 94.07 % 3.62 m/s 286.01 Deg N/A
2021-07-20 06:00 N/A 0.08 ug/m3 90.06 ug/m3 14.19 ug/m3 6.22 ug/m3 0.16 mg/m3 22.68 C 95.14 % 4.74 m/s 267.93 Deg N/A
2021-07-20 05:00 N/A 0.02 ug/m3 99.13 ug/m3 16 ug/m3 6.69 ug/m3 0.15 mg/m3 22.6 C 95.04 % 5.07 m/s 248.01 Deg N/A
2021-07-20 04:00 N/A 0.02 ug/m3 99.27 ug/m3 16.87 ug/m3 6.83 ug/m3 0.16 mg/m3 22.62 C 95.32 % 3.93 m/s 247.62 Deg N/A
2021-07-20 03:00 N/A 0.01 ug/m3 100.89 ug/m3 15.08 ug/m3 6.31 ug/m3 0.15 mg/m3 22.86 C 96.51 % 4.29 m/s 258.37 Deg N/A
2021-07-20 02:00 N/A -0.02 ug/m3 105.67 ug/m3 13.61 ug/m3 6.64 ug/m3 0.14 mg/m3 22.93 C 97.36 % 3.96 m/s 269.35 Deg N/A
2021-07-20 01:00 N/A -0.05 ug/m3 108.65 ug/m3 13.07 ug/m3 5.44 ug/m3 0.15 mg/m3 23.05 C 95.94 % 4.64 m/s 276.7 Deg N/A
2021-07-20 00:00 N/A -0.05 ug/m3 105.44 ug/m3 13.36 ug/m3 5.69 ug/m3 0.14 mg/m3 23 C 93.25 % 3.81 m/s 286.38 Deg N/A
2021-07-19 23:00 N/A -0.05 ug/m3 102.61 ug/m3 14.07 ug/m3 6.23 ug/m3 0.14 mg/m3 22.91 C 94.73 % 3.68 m/s 249.34 Deg N/A
2021-07-19 22:00 N/A 0.1 ug/m3 99.21 ug/m3 15.53 ug/m3 6.59 ug/m3 0.14 mg/m3 22.93 C 95.23 % 3.91 m/s 261.03 Deg N/A
2021-07-19 21:00 N/A 0.12 ug/m3 103.73 ug/m3 16.71 ug/m3 6.66 ug/m3 0.14 mg/m3 23.04 C 94.7 % 3.9 m/s 263.07 Deg N/A
2021-07-19 20:00 N/A 0.17 ug/m3 119.28 ug/m3 17.87 ug/m3 7.09 ug/m3 0.14 mg/m3 23.13 C 92.83 % 4.37 m/s 270.51 Deg N/A
2021-07-19 19:00 N/A 0.17 ug/m3 129.08 ug/m3 16.74 ug/m3 6.7 ug/m3 0.14 mg/m3 23.61 C 89.92 % 4.19 m/s 257.78 Deg N/A
2021-07-19 18:00 N/A 0.25 ug/m3 131.51 ug/m3 17.02 ug/m3 7.19 ug/m3 0.14 mg/m3 23.84 C 88.37 % 3.95 m/s 265.36 Deg N/A
2021-07-19 17:00 N/A 0.42 ug/m3 129.88 ug/m3 17.76 ug/m3 7.2 ug/m3 0.14 mg/m3 23.84 C 89.26 % 4.59 m/s 285.38 Deg N/A
2021-07-19 16:00 N/A 0.89 ug/m3 119.5 ug/m3 17.34 ug/m3 7.2 ug/m3 0.15 mg/m3 24.05 C 88.83 % 5.28 m/s 268.48 Deg N/A
2021-07-19 15:00 N/A 0.5 ug/m3 123.14 ug/m3 16.63 ug/m3 6.87 ug/m3 0.15 mg/m3 24.15 C 88.31 % 5.34 m/s 280.46 Deg N/A
2021-07-19 14:00 N/A 0.43 ug/m3 118.76 ug/m3 15.88 ug/m3 6.58 ug/m3 0.14 mg/m3 24.48 C 86.93 % 4.99 m/s 288.25 Deg N/A
2021-07-19 13:00 N/A 0.49 ug/m3 122.77 ug/m3 13.77 ug/m3 5.82 ug/m3 0.14 mg/m3 24.88 C 85.16 % 5.09 m/s 302.75 Deg N/A
2021-07-19 12:00 N/A 0.43 ug/m3 121.88 ug/m3 11.52 ug/m3 4.69 ug/m3 0.14 mg/m3 24.33 C 87.2 % 5.59 m/s 316.8 Deg N/A
2021-07-19 11:00 N/A 0.42 ug/m3 121.66 ug/m3 10.05 ug/m3 4.39 ug/m3 0.15 mg/m3 23.95 C 87.21 % 4.61 m/s 325.06 Deg N/A
2021-07-19 10:00 N/A 0.36 ug/m3 117.79 ug/m3 8.62 ug/m3 4.55 ug/m3 0.15 mg/m3 23.57 C 86.63 % 3.9 m/s 327.47 Deg N/A
2021-07-19 09:00 N/A 0.11 ug/m3 110.2 ug/m3 9.03 ug/m3 4.46 ug/m3 0.14 mg/m3 23.31 C 84.38 % 4.29 m/s 336.31 Deg N/A
2021-07-19 08:00 N/A 0.14 ug/m3 103.63 ug/m3 9.93 ug/m3 4.73 ug/m3 0.14 mg/m3 23.08 C 84.89 % 4.04 m/s 330.7 Deg N/A
2021-07-19 07:00 N/A 0.39 ug/m3 92.4 ug/m3 9.42 ug/m3 4.55 ug/m3 0.14 mg/m3 22.47 C 89.79 % 3.57 m/s 329.66 Deg N/A
2021-07-19 06:00 N/A 0.25 ug/m3 92.13 ug/m3 10.23 ug/m3 4.49 ug/m3 0.14 mg/m3 22.1 C 91.95 % 4.77 m/s 331.62 Deg N/A
2021-07-19 05:00 N/A 0.13 ug/m3 92.31 ug/m3 9.72 ug/m3 3.91 ug/m3 0.14 mg/m3 22.05 C 92.86 % 4.94 m/s 332.35 Deg N/A
2021-07-19 04:00 N/A 0.01 ug/m3 104.44 ug/m3 9.86 ug/m3 3.85 ug/m3 0.15 mg/m3 22.34 C 93.09 % 5.83 m/s 328.01 Deg N/A
2021-07-19 03:00 N/A 0.06 ug/m3 100.35 ug/m3 9.38 ug/m3 4.28 ug/m3 0.14 mg/m3 22.54 C 92.25 % 6.36 m/s 320.38 Deg N/A
2021-07-19 02:00 N/A 0.01 ug/m3 104.58 ug/m3 10.9 ug/m3 4.66 ug/m3 0.13 mg/m3 22.64 C 91.64 % 7.01 m/s 319.49 Deg N/A
2021-07-19 01:00 N/A -0.05 ug/m3 104.47 ug/m3 11.79 ug/m3 3.94 ug/m3 0.14 mg/m3 22.89 C 89.66 % 7.55 m/s 319.02 Deg N/A
2021-07-19 00:00 N/A -0.02 ug/m3 108.54 ug/m3 14.19 ug/m3 4.54 ug/m3 0.14 mg/m3 22.95 C 88.99 % 7.05 m/s 317.64 Deg N/A
2021-07-18 23:00 N/A -0.07 ug/m3 112.27 ug/m3 13.98 ug/m3 4.49 ug/m3 0.14 mg/m3 23.03 C 90.78 % 7.67 m/s 316.3 Deg N/A
2021-07-18 22:00 N/A 0.03 ug/m3 110.91 ug/m3 13.6 ug/m3 5.5 ug/m3 0.14 mg/m3 23.13 C 89.73 % 7.87 m/s 309.9 Deg N/A
2021-07-18 21:00 N/A -0.05 ug/m3 115.49 ug/m3 12.62 ug/m3 3.86 ug/m3 0.14 mg/m3 23.06 C 90.9 % 7.87 m/s 301.86 Deg N/A
2021-07-18 20:00 N/A -0.07 ug/m3 118.04 ug/m3 14.3 ug/m3 4.48 ug/m3 0.14 mg/m3 23.3 C 87.28 % 8.07 m/s 298.19 Deg N/A
2021-07-18 19:00 N/A 0.03 ug/m3 114.29 ug/m3 16.59 ug/m3 5.47 ug/m3 0.14 mg/m3 23.59 C 86.34 % 8.3 m/s 297.68 Deg N/A
2021-07-18 18:00 N/A 0.08 ug/m3 118.01 ug/m3 17.31 ug/m3 5.97 ug/m3 0.14 mg/m3 23.98 C 85.23 % 8.2 m/s 296.2 Deg N/A
2021-07-18 17:00 N/A 0.11 ug/m3 123.59 ug/m3 17.74 ug/m3 6.8 ug/m3 0.14 mg/m3 24.25 C 84.35 % 8.72 m/s 287.89 Deg N/A
2021-07-18 16:00 N/A 0.13 ug/m3 128.5 ug/m3 17.47 ug/m3 6.04 ug/m3 0.14 mg/m3 24.44 C 82.74 % 9.74 m/s 283.85 Deg N/A
2021-07-18 15:00 N/A 0.05 ug/m3 119.58 ug/m3 17.61 ug/m3 7.12 ug/m3 0.14 mg/m3 24.68 C 81.71 % 9.27 m/s 284.76 Deg N/A
2021-07-18 14:00 N/A 0.19 ug/m3 125.2 ug/m3 15.72 ug/m3 6.17 ug/m3 0.14 mg/m3 24.67 C 81.15 % 9.16 m/s 284.86 Deg N/A
2021-07-18 13:00 N/A 0.15 ug/m3 117.12 ug/m3 18.21 ug/m3 6.07 ug/m3 0.14 mg/m3 24.51 C 80.87 % 8.83 m/s 285.49 Deg N/A
2021-07-18 12:00 N/A 0.17 ug/m3 116.74 ug/m3 17.34 ug/m3 5.63 ug/m3 0.14 mg/m3 24.5 C 80.37 % 8.73 m/s 288.79 Deg N/A
2021-07-18 11:00 N/A 0.16 ug/m3 114.03 ug/m3 16.66 ug/m3 5.55 ug/m3 0.13 mg/m3 24.01 C 82.15 % 9 m/s 283.61 Deg N/A
2021-07-18 10:00 N/A 0.19 ug/m3 109.19 ug/m3 14.68 ug/m3 4.85 ug/m3 0.14 mg/m3 23.64 C 82.83 % 8.71 m/s 281.86 Deg N/A
2021-07-18 09:00 N/A 0.15 ug/m3 105.12 ug/m3 13.98 ug/m3 4.92 ug/m3 0.14 mg/m3 23.46 C 82.72 % 7.91 m/s 294.55 Deg N/A
2021-07-18 08:00 N/A 0.11 ug/m3 108.02 ug/m3 13.63 ug/m3 5.09 ug/m3 0.13 mg/m3 23.26 C 83.61 % 6.38 m/s 298.19 Deg N/A
2021-07-18 07:00 N/A 0.05 ug/m3 101.65 ug/m3 13.37 ug/m3 5.26 ug/m3 0.14 mg/m3 22.83 C 86.56 % 5.73 m/s 295.66 Deg N/A
2021-07-18 06:00 N/A -0 ug/m3 102.1 ug/m3 11.89 ug/m3 3.86 ug/m3 0.14 mg/m3 22.47 C 87.89 % 5.94 m/s 296.96 Deg N/A
2021-07-18 05:00 N/A -0.05 ug/m3 101.85 ug/m3 11.12 ug/m3 3.1 ug/m3 0.13 mg/m3 22.34 C 86.77 % 6.62 m/s 300.14 Deg N/A
2021-07-18 04:00 N/A -0.08 ug/m3 103.42 ug/m3 10.93 ug/m3 4.06 ug/m3 0.14 mg/m3 22.26 C 87.56 % 7.44 m/s 300.41 Deg N/A
2021-07-18 03:00 N/A -0.07 ug/m3 104.76 ug/m3 10.76 ug/m3 3.71 ug/m3 0.13 mg/m3 22.36 C 86.59 % 7.1 m/s 300.55 Deg N/A
2021-07-18 02:00 N/A -0.07 ug/m3 99.54 ug/m3 10.71 ug/m3 3.26 ug/m3 0.12 mg/m3 22.43 C 85.56 % 8 m/s 305.85 Deg N/A
2021-07-18 01:00 N/A -0.09 ug/m3 100.13 ug/m3 12.18 ug/m3 4.32 ug/m3 0.13 mg/m3 22.5 C 86.89 % 7.44 m/s 305.25 Deg N/A
2021-07-18 00:00 N/A -0.11 ug/m3 100.37 ug/m3 10.84 ug/m3 3.86 ug/m3 0.13 mg/m3 22.62 C 86.21 % 9 m/s 306.17 Deg N/A
2021-07-17 23:00 N/A -0.08 ug/m3 101.7 ug/m3 11.54 ug/m3 3.36 ug/m3 0.13 mg/m3 22.87 C 82.18 % 9.52 m/s 307.55 Deg N/A
2021-07-17 22:00 N/A -0.05 ug/m3 103.55 ug/m3 12.02 ug/m3 3.73 ug/m3 0.13 mg/m3 22.88 C 81.48 % 8.8 m/s 301.43 Deg N/A
2021-07-17 21:00 N/A -0.09 ug/m3 105.39 ug/m3 10.37 ug/m3 2.91 ug/m3 0.13 mg/m3 22.79 C 82.8 % 8.78 m/s 300.75 Deg N/A
2021-07-17 20:00 N/A -0.06 ug/m3 105.4 ug/m3 12.03 ug/m3 1.96 ug/m3 0.13 mg/m3 23.04 C 80.27 % 8.49 m/s 297.57 Deg N/A
2021-07-17 19:00 N/A -0.08 ug/m3 102.85 ug/m3 12.08 ug/m3 3.3 ug/m3 0.13 mg/m3 23.47 C 79.69 % 9.11 m/s 297.92 Deg N/A
2021-07-17 18:00 N/A -0.06 ug/m3 101.56 ug/m3 13.74 ug/m3 5.85 ug/m3 0.13 mg/m3 23.93 C 76.43 % 9.54 m/s 299.53 Deg N/A
2021-07-17 17:00 N/A 0.06 ug/m3 104.13 ug/m3 15.46 ug/m3 4.59 ug/m3 0.12 mg/m3 24.37 C 71.18 % 9.63 m/s 299.94 Deg N/A
2021-07-17 16:00 N/A 0.08 ug/m3 108.37 ug/m3 14.38 ug/m3 4.68 ug/m3 0.12 mg/m3 24.4 C 73.72 % 9.2 m/s 300.58 Deg N/A
2021-07-17 15:00 N/A 0.04 ug/m3 104.74 ug/m3 13.47 ug/m3 3.94 ug/m3 0.12 mg/m3 24.55 C 74.44 % 8.42 m/s 299.24 Deg N/A
2021-07-17 14:00 N/A 0.03 ug/m3 108.4 ug/m3 13.52 ug/m3 4.21 ug/m3 0.12 mg/m3 24.54 C 73.72 % 8.77 m/s 300.38 Deg N/A
2021-07-17 13:00 N/A 0.05 ug/m3 106.26 ug/m3 13.63 ug/m3 3.67 ug/m3 0.12 mg/m3 24.54 C 75.78 % 8.22 m/s 299.16 Deg N/A
2021-07-17 12:00 N/A 0 ug/m3 101.01 ug/m3 14.27 ug/m3 4.13 ug/m3 0.13 mg/m3 24.12 C 78.54 % 8.04 m/s 299.2 Deg N/A
2021-07-17 11:00 N/A 0.05 ug/m3 103.2 ug/m3 12.22 ug/m3 4.72 ug/m3 0.12 mg/m3 23.96 C 78.47 % 7.89 m/s 300.66 Deg N/A
2021-07-17 10:00 N/A 0.07 ug/m3 100.06 ug/m3 13.9 ug/m3 3.47 ug/m3 0.12 mg/m3 23.8 C 76.97 % 7.34 m/s 300.56 Deg N/A
2021-07-17 09:00 N/A 0.07 ug/m3 95.56 ug/m3 13.9 ug/m3 3.93 ug/m3 0.12 mg/m3 23.6 C 77.41 % 7.16 m/s 300.71 Deg N/A
2021-07-17 08:00 N/A 0.01 ug/m3 93.59 ug/m3 13.85 ug/m3 4.19 ug/m3 0.12 mg/m3 23.14 C 81.14 % 7.22 m/s 303.27 Deg N/A
2021-07-17 07:00 N/A -0.03 ug/m3 91.73 ug/m3 13.07 ug/m3 3.85 ug/m3 0.13 mg/m3 22.86 C 83.44 % 7.14 m/s 307.3 Deg N/A
2021-07-17 06:00 N/A 0 ug/m3 91.39 ug/m3 13.6 ug/m3 4.55 ug/m3 0.13 mg/m3 22.73 C 84.81 % 6.85 m/s 308.81 Deg N/A
2021-07-17 05:00 N/A -0.01 ug/m3 90.9 ug/m3 13.87 ug/m3 4.54 ug/m3 0.12 mg/m3 22.69 C 85.62 % 7.02 m/s 312.91 Deg N/A
2021-07-17 04:00 N/A -0.06 ug/m3 93.72 ug/m3 12.94 ug/m3 4.35 ug/m3 0.12 mg/m3 22.66 C 85.29 % 7.05 m/s 310.44 Deg N/A
2021-07-17 03:00 N/A -0.11 ug/m3 95.6 ug/m3 11.67 ug/m3 3.51 ug/m3 0.12 mg/m3 22.7 C 84.63 % 7.9 m/s 308.69 Deg N/A
2021-07-17 02:00 N/A -0.02 ug/m3 89.89 ug/m3 13.16 ug/m3 4.15 ug/m3 0.11 mg/m3 22.85 C 84.34 % 9.04 m/s 317.81 Deg N/A
2021-07-17 01:00 N/A -0.02 ug/m3 95.05 ug/m3 12.69 ug/m3 5.4 ug/m3 0.12 mg/m3 23.03 C 82.9 % 9.19 m/s 317.76 Deg N/A
2021-07-17 00:00 N/A -0.07 ug/m3 92.93 ug/m3 13.55 ug/m3 4.98 ug/m3 0.12 mg/m3 23.14 C 82.96 % 9.13 m/s 317.4 Deg N/A
2021-07-16 23:00 N/A -0.03 ug/m3 90.41 ug/m3 14.22 ug/m3 6 ug/m3 0.12 mg/m3 23.21 C 81.6 % 7.96 m/s 303.49 Deg N/A
2021-07-16 22:00 N/A 0.08 ug/m3 91.36 ug/m3 13.53 ug/m3 4.45 ug/m3 0.12 mg/m3 23.29 C 79.69 % 8.42 m/s 303.37 Deg N/A
2021-07-16 21:00 N/A 0.02 ug/m3 90.86 ug/m3 12.78 ug/m3 4.72 ug/m3 0.12 mg/m3 23.29 C 79.11 % 8.38 m/s 300.51 Deg N/A
2021-07-16 20:00 N/A -0.02 ug/m3 95.7 ug/m3 13.91 ug/m3 5.09 ug/m3 0.12 mg/m3 23.62 C 75.83 % 8.04 m/s 298.51 Deg N/A
2021-07-16 19:00 N/A 0.1 ug/m3 95.42 ug/m3 11.81 ug/m3 3.96 ug/m3 0.11 mg/m3 24.32 C 70.04 % 7.68 m/s 297.56 Deg N/A
2021-07-16 18:00 N/A 0.05 ug/m3 96.24 ug/m3 10.96 ug/m3 3.67 ug/m3 0.11 mg/m3 25.15 C 67.77 % 6.87 m/s 293.98 Deg N/A
2021-07-16 17:00 N/A 0.06 ug/m3 101.02 ug/m3 11.2 ug/m3 3.18 ug/m3 0.11 mg/m3 25.57 C 65.69 % 7.15 m/s 299.05 Deg N/A
2021-07-16 16:00 N/A 0.12 ug/m3 103.87 ug/m3 8.89 ug/m3 2.41 ug/m3 0.12 mg/m3 25.9 C 66.01 % 6.82 m/s 300.32 Deg N/A
2021-07-16 15:00 N/A 0.16 ug/m3 106.49 ug/m3 6.51 ug/m3 2.45 ug/m3 0.12 mg/m3 26.17 C 64.6 % 6.42 m/s 303.77 Deg N/A
2021-07-16 14:00 N/A 0.29 ug/m3 105.41 ug/m3 6.23 ug/m3 2.68 ug/m3 0.12 mg/m3 26.1 C 64.73 % 6.55 m/s 314.41 Deg N/A
2021-07-16 13:00 N/A 0.6 ug/m3 94.66 ug/m3 7.74 ug/m3 2.72 ug/m3 0.12 mg/m3 25.45 C 69.35 % 6.53 m/s 314.02 Deg N/A
2021-07-16 12:00 N/A 0.76 ug/m3 92.47 ug/m3 6.59 ug/m3 3.01 ug/m3 0.13 mg/m3 25.12 C 70.13 % 5.76 m/s 317.42 Deg N/A
2021-07-16 11:00 N/A 0.75 ug/m3 87.56 ug/m3 10.13 ug/m3 3.94 ug/m3 0.13 mg/m3 24.76 C 77.06 % 5.22 m/s 317.64 Deg N/A
2021-07-16 10:00 N/A 1.02 ug/m3 75.96 ug/m3 11.67 ug/m3 4.15 ug/m3 0.13 mg/m3 24.61 C 84.39 % 4.29 m/s 314.32 Deg N/A
2021-07-16 09:00 N/A 0.55 ug/m3 82.55 ug/m3 10.45 ug/m3 3.56 ug/m3 0.13 mg/m3 24.72 C 87.02 % 3.16 m/s 290.09 Deg N/A
2021-07-16 08:00 N/A 0.82 ug/m3 69.27 ug/m3 10.22 ug/m3 3.77 ug/m3 0.13 mg/m3 24.23 C 90.31 % 3.69 m/s 343.52 Deg N/A
2021-07-16 07:00 N/A 0.49 ug/m3 69.48 ug/m3 9.72 ug/m3 3.29 ug/m3 0.13 mg/m3 23.84 C 91.86 % 3.53 m/s 315.67 Deg N/A
2021-07-16 06:00 N/A 0.15 ug/m3 77.36 ug/m3 12.32 ug/m3 4 ug/m3 0.13 mg/m3 23.44 C 92.58 % 1.08 m/s 162.86 Deg N/A
2021-07-16 05:00 N/A 0.13 ug/m3 67.54 ug/m3 11.3 ug/m3 3.88 ug/m3 0.14 mg/m3 23.47 C 90.92 % 2.36 m/s 289.19 Deg N/A
2021-07-16 04:00 N/A 0.22 ug/m3 66.77 ug/m3 11.43 ug/m3 3.28 ug/m3 0.13 mg/m3 23.58 C 89.29 % 2.74 m/s 333.71 Deg N/A
2021-07-16 03:00 N/A 0.37 ug/m3 63.49 ug/m3 10.45 ug/m3 2.44 ug/m3 0.13 mg/m3 23.73 C 86.54 % 4.26 m/s 335.59 Deg N/A
2021-07-16 02:00 N/A 0.15 ug/m3 67.72 ug/m3 7.18 ug/m3 2.17 ug/m3 0.11 mg/m3 23.83 C 86.3 % 4 m/s 325.57 Deg N/A
2021-07-16 01:00 N/A 0.09 ug/m3 76.46 ug/m3 7.84 ug/m3 3.01 ug/m3 0.13 mg/m3 23.9 C 84.59 % 3.88 m/s 301.27 Deg N/A
2021-07-16 00:00 N/A 0.04 ug/m3 77.72 ug/m3 7.69 ug/m3 2.94 ug/m3 0.13 mg/m3 23.75 C 85.98 % 3.99 m/s 293.06 Deg N/A
2021-07-15 23:00 N/A 0.1 ug/m3 77 ug/m3 7.45 ug/m3 2.88 ug/m3 0.13 mg/m3 23.86 C 84.02 % 3.78 m/s 294.41 Deg N/A
2021-07-15 22:00 N/A 0.01 ug/m3 77.41 ug/m3 7.49 ug/m3 2.76 ug/m3 0.12 mg/m3 24.12 C 79.16 % 3.77 m/s 293.86 Deg N/A
2021-07-15 21:00 N/A 0.01 ug/m3 86.89 ug/m3 8.33 ug/m3 3.11 ug/m3 0.12 mg/m3 24.39 C 72.39 % 4.45 m/s 298.2 Deg N/A
2021-07-15 20:00 N/A -0.04 ug/m3 86.16 ug/m3 9.66 ug/m3 3.59 ug/m3 0.13 mg/m3 24.4 C 73.02 % 5.14 m/s 294.66 Deg N/A
2021-07-15 19:00 N/A -0.04 ug/m3 85.34 ug/m3 9.38 ug/m3 2.06 ug/m3 0.12 mg/m3 24.7 C 74.42 % 5.68 m/s 292.06 Deg N/A
2021-07-15 18:00 N/A 0.02 ug/m3 81.08 ug/m3 7.02 ug/m3 1.93 ug/m3 0.12 mg/m3 25.21 C 72.75 % 6.33 m/s 290.6 Deg N/A
2021-07-15 17:00 N/A 0.06 ug/m3 76.98 ug/m3 7.89 ug/m3 2.7 ug/m3 0.11 mg/m3 25.8 C 67.33 % 5.66 m/s 297.14 Deg N/A
2021-07-15 16:00 N/A 0.37 ug/m3 88.08 ug/m3 7.79 ug/m3 2.95 ug/m3 0.12 mg/m3 25.85 C 69.23 % 6.42 m/s 293.85 Deg N/A
2021-07-15 15:00 N/A 0.51 ug/m3 94.13 ug/m3 6.94 ug/m3 2.74 ug/m3 0.12 mg/m3 25.65 C 67.71 % 5.48 m/s 309.18 Deg N/A
2021-07-15 14:00 N/A 0.32 ug/m3 94.68 ug/m3 6.63 ug/m3 1.54 ug/m3 0.12 mg/m3 25.21 C 69.14 % 5.1 m/s 309.02 Deg N/A
2021-07-15 13:00 N/A 0.28 ug/m3 87.48 ug/m3 7.15 ug/m3 1.77 ug/m3 0.12 mg/m3 25.27 C 70.83 % 4.72 m/s 287.96 Deg N/A
2021-07-15 12:00 N/A 0.35 ug/m3 88.32 ug/m3 9.53 ug/m3 3.03 ug/m3 0.12 mg/m3 25.31 C 71.97 % 4.06 m/s 298.27 Deg N/A
2021-07-15 11:00 N/A 0.31 ug/m3 85.45 ug/m3 11.17 ug/m3 3.35 ug/m3 0.12 mg/m3 25.15 C 73.95 % 3.94 m/s 317.4 Deg N/A
2021-07-15 10:00 N/A 0.39 ug/m3 83 ug/m3 16.07 ug/m3 4.71 ug/m3 0.13 mg/m3 24.6 C 78.12 % 4.26 m/s 325.58 Deg N/A
2021-07-15 09:00 N/A 0.38 ug/m3 77.73 ug/m3 22.62 ug/m3 6.04 ug/m3 0.13 mg/m3 25 C 79.99 % 3.77 m/s 314.86 Deg N/A
2021-07-15 08:00 N/A 0.41 ug/m3 75.93 ug/m3 20.57 ug/m3 5.6 ug/m3 0.14 mg/m3 25.67 C 80.6 % 0.95 m/s 226.95 Deg N/A
2021-07-15 07:00 N/A 0.19 ug/m3 62.85 ug/m3 19.56 ug/m3 4.26 ug/m3 0.13 mg/m3 24.34 C 89.34 % 1.75 m/s 105.6 Deg N/A
2021-07-15 06:00 N/A 0.05 ug/m3 62.41 ug/m3 19.69 ug/m3 3.76 ug/m3 0.13 mg/m3 23.75 C 92.21 % 1.29 m/s 79.31 Deg N/A
2021-07-15 05:00 N/A 0.07 ug/m3 67.25 ug/m3 19.85 ug/m3 4.69 ug/m3 0.13 mg/m3 23.79 C 92.52 % 1.93 m/s 82.61 Deg N/A
2021-07-15 04:00 N/A 0.09 ug/m3 70.21 ug/m3 18.41 ug/m3 3.79 ug/m3 0.14 mg/m3 23.91 C 92.06 % 2.27 m/s 108.92 Deg N/A
2021-07-15 03:00 N/A 0.18 ug/m3 63.06 ug/m3 19.93 ug/m3 4.19 ug/m3 0.13 mg/m3 24.08 C 89.72 % 2.12 m/s 99.96 Deg N/A
2021-07-15 02:00 N/A 0.11 ug/m3 57.07 ug/m3 18.3 ug/m3 4.07 ug/m3 0.12 mg/m3 24.45 C 90.72 % 1.6 m/s 102.03 Deg N/A
2021-07-15 01:00 N/A 0.04 ug/m3 61.62 ug/m3 22 ug/m3 3.57 ug/m3 0.12 mg/m3 24.72 C 88.33 % 3.22 m/s 338.51 Deg N/A
2021-07-15 00:00 N/A 0.12 ug/m3 56.66 ug/m3 19.7 ug/m3 2.76 ug/m3 0.12 mg/m3 24.93 C 87.41 % 4.22 m/s 335.95 Deg N/A
2021-07-14 23:00 N/A 0.18 ug/m3 72.09 ug/m3 18.27 ug/m3 3.58 ug/m3 0.12 mg/m3 24.97 C 84.73 % 4.67 m/s 327.99 Deg N/A
2021-07-14 22:00 N/A 0.26 ug/m3 74.4 ug/m3 19.43 ug/m3 4.54 ug/m3 0.12 mg/m3 25.1 C 81.2 % 4.27 m/s 327.32 Deg N/A
2021-07-14 21:00 N/A 0.19 ug/m3 79.6 ug/m3 21.91 ug/m3 4.85 ug/m3 0.12 mg/m3 25.34 C 81.12 % 4.37 m/s 327.21 Deg N/A
2021-07-14 20:00 N/A 0.2 ug/m3 78.98 ug/m3 19.7 ug/m3 4.32 ug/m3 0.12 mg/m3 25.55 C 80.02 % 4.25 m/s 309.75 Deg N/A
2021-07-14 19:00 N/A 0.4 ug/m3 81.05 ug/m3 19.66 ug/m3 4.73 ug/m3 0.12 mg/m3 26.01 C 79.06 % 4.53 m/s 314.57 Deg N/A
2021-07-14 18:00 N/A 0.46 ug/m3 80.45 ug/m3 21.87 ug/m3 5.35 ug/m3 0.11 mg/m3 26.47 C 78.79 % 4.18 m/s 302.57 Deg N/A
2021-07-14 17:00 N/A 0.59 ug/m3 79.92 ug/m3 20.55 ug/m3 5.84 ug/m3 0.12 mg/m3 26.72 C 78.99 % 4.34 m/s 300.7 Deg N/A
2021-07-14 16:00 N/A 0.63 ug/m3 93.11 ug/m3 21.95 ug/m3 6.35 ug/m3 0.12 mg/m3 26.57 C 81.1 % 4.81 m/s 279.47 Deg N/A
2021-07-14 15:00 N/A 0.85 ug/m3 96.2 ug/m3 26.23 ug/m3 6.93 ug/m3 0.12 mg/m3 26.11 C 81.73 % 4.85 m/s 261.74 Deg N/A
2021-07-14 14:00 N/A 0.28 ug/m3 91.36 ug/m3 33.6 ug/m3 8.99 ug/m3 0.13 mg/m3 25.8 C 85.04 % 5.23 m/s 265.51 Deg N/A
2021-07-14 13:00 0.54 ug/m3 -0.04 ug/m3 89.9 ug/m3 41.49 ug/m3 10.78 ug/m3 0.12 mg/m3 25.74 C 84.93 % 4.42 m/s 266.62 Deg 0.06 ug/m3
2021-07-14 12:00 1.26 ug/m3 -0.05 ug/m3 97.59 ug/m3 41.33 ug/m3 11.38 ug/m3 0.13 mg/m3 25.79 C 84.07 % 3.88 m/s 277.46 Deg 0.17 ug/m3
2021-07-14 11:00 1.11 ug/m3 0.1 ug/m3 98.26 ug/m3 30.77 ug/m3 9.34 ug/m3 0.13 mg/m3 25.75 C 84.44 % 3.46 m/s 310.59 Deg 1.37 ug/m3
2021-07-14 10:00 1.83 ug/m3 0.23 ug/m3 97.27 ug/m3 19.4 ug/m3 6.42 ug/m3 0.13 mg/m3 25.56 C 86.49 % 3.28 m/s 324.06 Deg 0.22 ug/m3
2021-07-14 09:00 3.01 ug/m3 0.3 ug/m3 90.55 ug/m3 14.07 ug/m3 5.08 ug/m3 0.13 mg/m3 25.23 C 89.13 % 2.89 m/s 323.12 Deg 0.53 ug/m3
2021-07-14 08:00 0.8 ug/m3 0.02 ug/m3 93.97 ug/m3 11.38 ug/m3 4.28 ug/m3 0.13 mg/m3 25.17 C 89.88 % 2.24 m/s 318.4 Deg 0.09 ug/m3
2021-07-14 07:00 0.74 ug/m3 -0.07 ug/m3 93.92 ug/m3 9.38 ug/m3 3.8 ug/m3 0.14 mg/m3 24.86 C 90.92 % 1.37 m/s 314.38 Deg 0.06 ug/m3
2021-07-14 06:00 1.16 ug/m3 -0.15 ug/m3 95.55 ug/m3 9.02 ug/m3 4.66 ug/m3 0.14 mg/m3 24.42 C 93.92 % 2.27 m/s 314.6 Deg 0.03 ug/m3
2021-07-14 05:00 0.19 ug/m3 -0.19 ug/m3 105.86 ug/m3 10.49 ug/m3 4.98 ug/m3 0.13 mg/m3 24.48 C 94.32 % 2.41 m/s 289.46 Deg 0.01 ug/m3
2021-07-14 04:00 1.47 ug/m3 -0.15 ug/m3 92.88 ug/m3 9.19 ug/m3 4.27 ug/m3 0.13 mg/m3 24.81 C 95.77 % 2.8 m/s 268.44 Deg 0.02 ug/m3
2021-07-14 03:00 0.15 ug/m3 -0.21 ug/m3 88.27 ug/m3 9.03 ug/m3 3.97 ug/m3 0.13 mg/m3 25 C 95.04 % 3.08 m/s 268.52 Deg 0.02 ug/m3
2021-07-14 02:00 -0.06 ug/m3 -0.17 ug/m3 89.82 ug/m3 10.42 ug/m3 4.65 ug/m3 0.12 mg/m3 25.43 C 86.92 % 3.37 m/s 223.9 Deg 0.01 ug/m3
2021-07-14 01:00 0 ug/m3 -0.18 ug/m3 90.49 ug/m3 9.18 ug/m3 4.83 ug/m3 0.14 mg/m3 25.41 C 86.32 % 3.57 m/s 196.84 Deg 0.02 ug/m3
2021-07-14 00:00 0.12 ug/m3 -0.11 ug/m3 92.62 ug/m3 10.45 ug/m3 4.62 ug/m3 0.14 mg/m3 25.58 C 85.03 % 3.88 m/s 198.82 Deg 0.01 ug/m3
2021-07-13 23:00 1.57 ug/m3 -0.12 ug/m3 90.64 ug/m3 12.14 ug/m3 4.47 ug/m3 0.15 mg/m3 25.55 C 87.2 % 3.97 m/s 181.41 Deg 0.02 ug/m3
2021-07-13 22:00 0.58 ug/m3 -0.11 ug/m3 101.21 ug/m3 12.4 ug/m3 5.16 ug/m3 0.15 mg/m3 25.86 C 84.94 % 4.11 m/s 165.55 Deg 0.01 ug/m3
2021-07-13 21:00 0.78 ug/m3 -0.08 ug/m3 108.06 ug/m3 13.71 ug/m3 5.15 ug/m3 0.17 mg/m3 26.02 C 83.96 % 4.25 m/s 175.88 Deg 0.01 ug/m3
2021-07-13 20:00 0.8 ug/m3 0.03 ug/m3 114.33 ug/m3 14.2 ug/m3 4.72 ug/m3 0.17 mg/m3 26.45 C 79.56 % 4.58 m/s 174.02 Deg 0.02 ug/m3
2021-07-13 19:00 1.24 ug/m3 0.25 ug/m3 123.46 ug/m3 15.03 ug/m3 5.73 ug/m3 0.16 mg/m3 27.38 C 69.24 % 5.64 m/s 171.92 Deg 0.03 ug/m3
2021-07-13 18:00 2.12 ug/m3 0.49 ug/m3 126.48 ug/m3 16.54 ug/m3 5.32 ug/m3 0.14 mg/m3 28.16 C 62.56 % 5.07 m/s 181.73 Deg 0.09 ug/m3
2021-07-13 17:00 1.63 ug/m3 0.37 ug/m3 122.87 ug/m3 13.18 ug/m3 4.47 ug/m3 0.14 mg/m3 28.33 C 64.39 % 4.66 m/s 201.22 Deg 0.11 ug/m3
2021-07-13 16:00 0.34 ug/m3 0.09 ug/m3 105.59 ug/m3 12 ug/m3 3.69 ug/m3 0.13 mg/m3 27.57 C 75.96 % 4.16 m/s 211.43 Deg 0.04 ug/m3
2021-07-13 15:00 0.29 ug/m3 0.07 ug/m3 91.05 ug/m3 11.38 ug/m3 3.86 ug/m3 0.13 mg/m3 27.65 C 77.37 % 5.13 m/s 211.55 Deg 0.05 ug/m3
2021-07-13 14:00 0.57 ug/m3 0.09 ug/m3 91.83 ug/m3 28.91 ug/m3 4.2 ug/m3 0.12 mg/m3 27.79 C 75.19 % 6.33 m/s 207.88 Deg 0.08 ug/m3
2021-07-13 13:00 1.1 ug/m3 0.17 ug/m3 89.76 ug/m3 31.76 ug/m3 3.18 ug/m3 0.12 mg/m3 28.08 C 70.54 % 7.4 m/s 194.55 Deg 0.16 ug/m3
2021-07-13 12:00 0.65 ug/m3 0.14 ug/m3 85.05 ug/m3 15.29 ug/m3 3.52 ug/m3 0.12 mg/m3 27.73 C 73.76 % 7.29 m/s 184.39 Deg 0.11 ug/m3
2021-07-13 11:00 0.47 ug/m3 -0.07 ug/m3 79.74 ug/m3 7.07 ug/m3 2.07 ug/m3 0.12 mg/m3 26.83 C 84.72 % 6.17 m/s 203.54 Deg 0.09 ug/m3
2021-07-13 10:00 0.34 ug/m3 -0.07 ug/m3 84.04 ug/m3 5.86 ug/m3 2.42 ug/m3 0.12 mg/m3 26.36 C 87.08 % 5.86 m/s 204.91 Deg 0.06 ug/m3
2021-07-13 09:00 0.47 ug/m3 -0.09 ug/m3 86.97 ug/m3 7.28 ug/m3 3.5 ug/m3 0.12 mg/m3 26.09 C 89.16 % 6.38 m/s 206.6 Deg 0.07 ug/m3
2021-07-13 08:00 3.05 ug/m3 -0.19 ug/m3 82.06 ug/m3 11.84 ug/m3 5.23 ug/m3 0.13 mg/m3 25.64 C 92.5 % 5.42 m/s 200.31 Deg 0.35 ug/m3
2021-07-13 07:00 2.68 ug/m3 -0.22 ug/m3 73.32 ug/m3 12.67 ug/m3 4.28 ug/m3 0.14 mg/m3 25.17 C 93.77 % 3.22 m/s 193 Deg 0.2 ug/m3
2021-07-13 06:00 3.3 ug/m3 -0.21 ug/m3 70.18 ug/m3 9.67 ug/m3 3.63 ug/m3 0.14 mg/m3 24.56 C 94.73 % 3.78 m/s 124.73 Deg 0.11 ug/m3
2021-07-13 05:00 0.95 ug/m3 -0.22 ug/m3 75.04 ug/m3 8.16 ug/m3 4.06 ug/m3 0.13 mg/m3 24.7 C 96.13 % 4.35 m/s 131.56 Deg 0.02 ug/m3
2021-07-13 04:00 1.14 ug/m3 -0.18 ug/m3 71.55 ug/m3 7.3 ug/m3 3.45 ug/m3 0.13 mg/m3 24.62 C 96.57 % 3.1 m/s 121.37 Deg 0.03 ug/m3
2021-07-13 03:00 0.55 ug/m3 -0.21 ug/m3 74.57 ug/m3 7.22 ug/m3 3.62 ug/m3 0.13 mg/m3 24.99 C 96.75 % 1.42 m/s 154.11 Deg 0.01 ug/m3
2021-07-13 02:00 -0.09 ug/m3 -0.23 ug/m3 78.85 ug/m3 8.27 ug/m3 3.9 ug/m3 0.12 mg/m3 25.22 C 95.32 % 2.61 m/s 213.86 Deg 0.02 ug/m3
2021-07-13 01:00 0.19 ug/m3 -0.18 ug/m3 79.07 ug/m3 8.92 ug/m3 3.38 ug/m3 0.13 mg/m3 25.23 C 93.5 % 3.48 m/s 201.33 Deg 0.02 ug/m3
2021-07-13 00:00 3.83 ug/m3 -0.12 ug/m3 72.89 ug/m3 8.4 ug/m3 3.21 ug/m3 0.14 mg/m3 25.33 C 92.84 % 3.61 m/s 187.98 Deg 0.02 ug/m3
2021-07-12 23:00 0.03 ug/m3 -0.16 ug/m3 87.05 ug/m3 8.46 ug/m3 3.92 ug/m3 0.14 mg/m3 25.54 C 92.15 % 3.84 m/s 202.4 Deg 0.01 ug/m3
2021-07-12 22:00 0.26 ug/m3 -0.08 ug/m3 81.73 ug/m3 9.26 ug/m3 3.65 ug/m3 0.14 mg/m3 25.49 C 91.95 % 2.57 m/s 191.34 Deg 0.02 ug/m3
2021-07-12 21:00 1 ug/m3 0 ug/m3 82.78 ug/m3 11.75 ug/m3 4.64 ug/m3 0.16 mg/m3 25.57 C 89.62 % 0.86 m/s 99.22 Deg 0.02 ug/m3
2021-07-12 20:00 0.63 ug/m3 0.04 ug/m3 84.11 ug/m3 11.11 ug/m3 5.2 ug/m3 0.14 mg/m3 26.03 C 87.77 % 0.77 m/s 148.04 Deg 0.01 ug/m3
2021-07-12 19:00 0.37 ug/m3 0.11 ug/m3 86.63 ug/m3 12.8 ug/m3 3.89 ug/m3 0.13 mg/m3 26.83 C 84.15 % 1.44 m/s 35.48 Deg 0.03 ug/m3
2021-07-12 18:00 0.67 ug/m3 0.22 ug/m3 88.44 ug/m3 11.17 ug/m3 4.27 ug/m3 0.13 mg/m3 27.87 C 78.61 % 1.91 m/s 84.51 Deg 0.06 ug/m3
2021-07-12 17:00 0.6 ug/m3 0.2 ug/m3 86.17 ug/m3 9.38 ug/m3 4.76 ug/m3 0.13 mg/m3 27.34 C 82.07 % 3.69 m/s 218.49 Deg 0.08 ug/m3
2021-07-12 16:00 0.29 ug/m3 0.26 ug/m3 87.56 ug/m3 9.77 ug/m3 4.69 ug/m3 0.13 mg/m3 26.82 C 83.73 % 4.18 m/s 220.46 Deg 0.04 ug/m3
2021-07-12 15:00 0.25 ug/m3 0.27 ug/m3 85.02 ug/m3 10.72 ug/m3 5.03 ug/m3 0.13 mg/m3 26.71 C 83.97 % 4.46 m/s 219.14 Deg 0.05 ug/m3
2021-07-12 14:00 0.51 ug/m3 0.4 ug/m3 94.86 ug/m3 9.05 ug/m3 5.27 ug/m3 0.13 mg/m3 26.61 C 84.07 % 4.58 m/s 223.11 Deg 0.07 ug/m3
2021-07-12 13:00 0.39 ug/m3 0.35 ug/m3 86.56 ug/m3 9.75 ug/m3 4.46 ug/m3 0.13 mg/m3 26.62 C 83.83 % 4.58 m/s 218.96 Deg 0.07 ug/m3
2021-07-12 12:00 0.57 ug/m3 0.38 ug/m3 93.78 ug/m3 10.33 ug/m3 4.02 ug/m3 0.13 mg/m3 26.3 C 84.25 % 4.19 m/s 218.2 Deg 0.08 ug/m3
2021-07-12 11:00 0.97 ug/m3 0.41 ug/m3 95.05 ug/m3 13.5 ug/m3 5.14 ug/m3 0.13 mg/m3 26.45 C 83.34 % 3.63 m/s 225.06 Deg 0.13 ug/m3
2021-07-12 10:00 4.62 ug/m3 0.74 ug/m3 99.03 ug/m3 16.88 ug/m3 6.21 ug/m3 0.14 mg/m3 26.63 C 78.79 % 2.69 m/s 259.51 Deg 0.71 ug/m3
2021-07-12 09:00 9.73 ug/m3 0.85 ug/m3 83.72 ug/m3 18.86 ug/m3 6.22 ug/m3 0.14 mg/m3 27.14 C 75.24 % 1.88 m/s 260.62 Deg 1.9 ug/m3
2021-07-12 08:00 16.17 ug/m3 1.03 ug/m3 71.64 ug/m3 14.81 ug/m3 5.66 ug/m3 0.16 mg/m3 26.48 C 77.76 % 2.12 m/s 151.83 Deg 3.18 ug/m3
2021-07-12 07:00 10.46 ug/m3 0.3 ug/m3 67.56 ug/m3 12.08 ug/m3 4.89 ug/m3 0.15 mg/m3 24.69 C 88.46 % 3 m/s 113.03 Deg 1.38 ug/m3
2021-07-12 06:00 11.82 ug/m3 0.21 ug/m3 60.99 ug/m3 10.81 ug/m3 4.82 ug/m3 0.14 mg/m3 23.73 C 93.1 % 2 m/s 101.29 Deg 0.51 ug/m3
2021-07-12 05:00 5.85 ug/m3 -0.03 ug/m3 66.39 ug/m3 9.62 ug/m3 4.28 ug/m3 0.12 mg/m3 23.64 C 94.93 % 3.24 m/s 78.43 Deg 0.05 ug/m3
2021-07-12 04:00 3.35 ug/m3 0.03 ug/m3 71.49 ug/m3 10.23 ug/m3 4.05 ug/m3 0.19 mg/m3 23.39 C 92.65 % 3.21 m/s 74.62 Deg 0.02 ug/m3
2021-07-12 03:00 2.1 ug/m3 0.02 ug/m3 74.12 ug/m3 10.28 ug/m3 3.65 ug/m3 0.12 mg/m3 23.54 C 92.25 % 1.82 m/s 78.93 Deg 0.02 ug/m3
2021-07-12 02:00 2.41 ug/m3 0.14 ug/m3 79.45 ug/m3 10.72 ug/m3 3.7 ug/m3 0.11 mg/m3 24.05 C 89.98 % 2.32 m/s 169.3 Deg 0.02 ug/m3
2021-07-12 01:00 2.26 ug/m3 0.12 ug/m3 81.2 ug/m3 13.13 ug/m3 4.98 ug/m3 0.12 mg/m3 24.22 C 88.39 % 3.18 m/s 170.04 Deg 0.03 ug/m3
2021-07-12 00:00 1.24 ug/m3 0.03 ug/m3 83.24 ug/m3 15.05 ug/m3 5.54 ug/m3 0.12 mg/m3 24.25 C 87.45 % 2.68 m/s 161.18 Deg 0.03 ug/m3
2021-07-11 23:00 1.26 ug/m3 0.09 ug/m3 87.39 ug/m3 14.15 ug/m3 4.57 ug/m3 0.12 mg/m3 24.7 C 85.38 % 2.64 m/s 207.11 Deg 0.02 ug/m3
2021-07-11 22:00 1.04 ug/m3 0.03 ug/m3 89.18 ug/m3 13.74 ug/m3 3.47 ug/m3 0.12 mg/m3 24.87 C 84.51 % 3.78 m/s 234.3 Deg 0.02 ug/m3
2021-07-11 21:00 0.58 ug/m3 0.08 ug/m3 88.21 ug/m3 12.91 ug/m3 4.23 ug/m3 0.12 mg/m3 24.85 C 81.68 % 2.14 m/s 255.42 Deg 0.01 ug/m3
2021-07-11 20:00 7.23 ug/m3 0.15 ug/m3 84.53 ug/m3 12.58 ug/m3 4.43 ug/m3 0.11 mg/m3 25.02 C 80.73 % 2.52 m/s 287.44 Deg 0.06 ug/m3
2021-07-11 19:00 4.68 ug/m3 0.31 ug/m3 96.97 ug/m3 10.84 ug/m3 4.23 ug/m3 0.11 mg/m3 25.5 C 78.87 % 3.16 m/s 310.37 Deg 0.16 ug/m3
2021-07-11 18:00 0.66 ug/m3 0.26 ug/m3 97.91 ug/m3 9.83 ug/m3 3.33 ug/m3 0.11 mg/m3 25.86 C 78.16 % 4.55 m/s 314.34 Deg 0.07 ug/m3
2021-07-11 17:00 2.25 ug/m3 0.47 ug/m3 94.1 ug/m3 8.78 ug/m3 3.79 ug/m3 0.11 mg/m3 26.14 C 77.74 % 4.67 m/s 315.53 Deg 0.4 ug/m3
2021-07-11 16:00 1.02 ug/m3 0.42 ug/m3 102.19 ug/m3 5.75 ug/m3 2.81 ug/m3 0.11 mg/m3 26.4 C 70.54 % 4.34 m/s 296.78 Deg 0.13 ug/m3
2021-07-11 15:00 0.72 ug/m3 0.28 ug/m3 104.04 ug/m3 5.03 ug/m3 2.75 ug/m3 0.11 mg/m3 26.14 C 66.63 % 4.58 m/s 301.9 Deg 0.08 ug/m3
2021-07-11 14:00 0.89 ug/m3 0.41 ug/m3 105.76 ug/m3 5.38 ug/m3 3.32 ug/m3 0.11 mg/m3 25.62 C 71.65 % 4.66 m/s 323.31 Deg 0.09 ug/m3
2021-07-11 13:00 1.38 ug/m3 0.44 ug/m3 102.79 ug/m3 5.22 ug/m3 3.01 ug/m3 0.11 mg/m3 25.64 C 71.68 % 4.03 m/s 325.39 Deg 0.17 ug/m3
2021-07-11 12:00 1.17 ug/m3 0.44 ug/m3 98.9 ug/m3 4.42 ug/m3 2.7 ug/m3 0.11 mg/m3 25.51 C 72.67 % 4.11 m/s 324.5 Deg 0.13 ug/m3
2021-07-11 11:00 1.42 ug/m3 0.49 ug/m3 92.17 ug/m3 6.98 ug/m3 3.13 ug/m3 0.11 mg/m3 25.33 C 73.4 % 4.54 m/s 321.96 Deg 0.16 ug/m3
2021-07-11 10:00 1.73 ug/m3 0.51 ug/m3 85.44 ug/m3 11.44 ug/m3 3.71 ug/m3 0.11 mg/m3 25.28 C 73.75 % 4.74 m/s 336.93 Deg 0.24 ug/m3
2021-07-11 09:00 2.31 ug/m3 1.06 ug/m3 85.1 ug/m3 10.61 ug/m3 3.81 ug/m3 0.11 mg/m3 25.2 C 75.73 % 5.21 m/s 343.17 Deg 0.36 ug/m3
2021-07-11 08:00 4.77 ug/m3 2.6 ug/m3 78.79 ug/m3 10.8 ug/m3 4.26 ug/m3 0.11 mg/m3 25.09 C 77.78 % 3.83 m/s 82.19 Deg 0.77 ug/m3
2021-07-11 07:00 4.29 ug/m3 1.28 ug/m3 73.84 ug/m3 9.86 ug/m3 3.51 ug/m3 0.11 mg/m3 24.72 C 80.79 % 3.65 m/s 64.56 Deg 0.49 ug/m3
2021-07-11 06:00 2.84 ug/m3 0.43 ug/m3 71.21 ug/m3 10.05 ug/m3 3.4 ug/m3 0.11 mg/m3 23.73 C 85.51 % 4.04 m/s 73.29 Deg 0.13 ug/m3
2021-07-11 05:00 2.12 ug/m3 0.3 ug/m3 69.73 ug/m3 12.45 ug/m3 3.18 ug/m3 0.11 mg/m3 23.32 C 86.69 % 3.48 m/s 81.91 Deg 0.04 ug/m3
2021-07-11 04:00 2.74 ug/m3 0.26 ug/m3 64.83 ug/m3 14.52 ug/m3 2.87 ug/m3 0.12 mg/m3 23.24 C 89.97 % 3.36 m/s 84.7 Deg 0.04 ug/m3
2021-07-11 03:00 3.31 ug/m3 0.15 ug/m3 62.03 ug/m3 15.53 ug/m3 3.56 ug/m3 0.12 mg/m3 23.53 C 94.32 % 2.43 m/s 56.32 Deg 0.03 ug/m3
2021-07-11 02:00 3.58 ug/m3 0.27 ug/m3 71.39 ug/m3 14.65 ug/m3 3.56 ug/m3 0.11 mg/m3 24.11 C 92.2 % 1.42 m/s 311.26 Deg 0.03 ug/m3
2021-07-11 01:00 2.22 ug/m3 0.33 ug/m3 72.39 ug/m3 16.83 ug/m3 2.91 ug/m3 0.12 mg/m3 24.41 C 88.48 % 2.99 m/s 257.75 Deg 0.03 ug/m3
2021-07-11 00:00 4.14 ug/m3 0.35 ug/m3 72.99 ug/m3 14.78 ug/m3 3.79 ug/m3 0.12 mg/m3 24.53 C 86.54 % 3.42 m/s 263.57 Deg 0.03 ug/m3
2021-07-10 23:00 2.48 ug/m3 0.24 ug/m3 82.09 ug/m3 12.89 ug/m3 4.26 ug/m3 0.12 mg/m3 24.74 C 83.17 % 4.35 m/s 268.46 Deg 0.03 ug/m3
2021-07-10 22:00 1.94 ug/m3 0.06 ug/m3 84.19 ug/m3 10.58 ug/m3 4.35 ug/m3 0.12 mg/m3 24.77 C 80.86 % 4.46 m/s 267.43 Deg 0.02 ug/m3
2021-07-10 21:00 1.34 ug/m3 0.02 ug/m3 84.89 ug/m3 9.85 ug/m3 4.19 ug/m3 0.11 mg/m3 24.57 C 81.89 % 4.91 m/s 269.87 Deg 0.02 ug/m3
2021-07-10 20:00 1.54 ug/m3 0.07 ug/m3 89.86 ug/m3 8.48 ug/m3 3.05 ug/m3 0.11 mg/m3 24.68 C 81.08 % 4.74 m/s 286.45 Deg 0.03 ug/m3
2021-07-10 19:00 0.35 ug/m3 0.09 ug/m3 93.25 ug/m3 9.3 ug/m3 3.33 ug/m3 0.11 mg/m3 25.37 C 77.68 % 4.94 m/s 299.44 Deg 0.03 ug/m3
2021-07-10 18:00 1.3 ug/m3 0.2 ug/m3 92.07 ug/m3 8.4 ug/m3 2.74 ug/m3 0.11 mg/m3 26 C 75.62 % 5.26 m/s 299.79 Deg 0.22 ug/m3
2021-07-10 17:00 1.57 ug/m3 0.31 ug/m3 93.26 ug/m3 8.35 ug/m3 3.1 ug/m3 0.11 mg/m3 26.62 C 73.13 % 5.1 m/s 303.45 Deg 0.26 ug/m3
2021-07-10 16:00 2.29 ug/m3 0.46 ug/m3 102.7 ug/m3 9.24 ug/m3 3.57 ug/m3 0.11 mg/m3 26.92 C 70.79 % 4.71 m/s 300.14 Deg 0.39 ug/m3
2021-07-10 15:00 1.79 ug/m3 0.76 ug/m3 108.02 ug/m3 9.05 ug/m3 2.69 ug/m3 0.11 mg/m3 26.78 C 70.99 % 5 m/s 283.4 Deg 0.27 ug/m3
2021-07-10 14:00 0.86 ug/m3 0.85 ug/m3 106.87 ug/m3 9.32 ug/m3 3.84 ug/m3 0.12 mg/m3 26.89 C 70.54 % 4.08 m/s 292.28 Deg 0.1 ug/m3
2021-07-10 13:00 2.59 ug/m3 0.85 ug/m3 101.55 ug/m3 10.25 ug/m3 3.26 ug/m3 0.12 mg/m3 26.41 C 77.31 % 3.65 m/s 318.5 Deg 0.46 ug/m3
2021-07-10 12:00 0.99 ug/m3 0.68 ug/m3 100.66 ug/m3 12.72 ug/m3 3.65 ug/m3 0.12 mg/m3 26.14 C 79.45 % 3.96 m/s 327.09 Deg 0.12 ug/m3
2021-07-10 11:00 2.55 ug/m3 0.72 ug/m3 95.6 ug/m3 11.54 ug/m3 4.32 ug/m3 0.11 mg/m3 26.12 C 79.33 % 4.55 m/s 329.53 Deg 0.46 ug/m3
2021-07-10 10:00 6.18 ug/m3 0.63 ug/m3 85.06 ug/m3 12 ug/m3 3.62 ug/m3 0.11 mg/m3 25.92 C 79.39 % 5.91 m/s 329.87 Deg 1.44 ug/m3
2021-07-10 09:00 2.06 ug/m3 0.42 ug/m3 89.24 ug/m3 12.42 ug/m3 4.04 ug/m3 0.11 mg/m3 25.81 C 79.03 % 6.22 m/s 318.55 Deg 0.32 ug/m3
2021-07-10 08:00 1.06 ug/m3 0.27 ug/m3 88.63 ug/m3 12.86 ug/m3 5.43 ug/m3 0.11 mg/m3 25.7 C 79.35 % 5.54 m/s 301.78 Deg 0.15 ug/m3
2021-07-10 07:00 3.95 ug/m3 0.46 ug/m3 77.11 ug/m3 13.63 ug/m3 4.52 ug/m3 0.13 mg/m3 25.14 C 86.17 % 4.63 m/s 290.4 Deg 0.35 ug/m3
2021-07-10 06:00 4.16 ug/m3 0.14 ug/m3 69.67 ug/m3 14.46 ug/m3 3.77 ug/m3 0.13 mg/m3 24.8 C 91.5 % 3.11 m/s 312.61 Deg 0.13 ug/m3
2021-07-10 05:00 5.83 ug/m3 0.05 ug/m3 66.53 ug/m3 14.14 ug/m3 4.19 ug/m3 0.13 mg/m3 24.8 C 92.81 % 3.31 m/s 306.99 Deg 0.05 ug/m3
2021-07-10 04:00 2.56 ug/m3 0.18 ug/m3 71.39 ug/m3 14.58 ug/m3 3.42 ug/m3 0.13 mg/m3 24.91 C 91.61 % 3.84 m/s 303.49 Deg 0.04 ug/m3
2021-07-10 03:00 4.6 ug/m3 0.1 ug/m3 69.23 ug/m3 15.56 ug/m3 4.23 ug/m3 0.13 mg/m3 25.09 C 91.54 % 4.23 m/s 286.92 Deg 0.04 ug/m3
2021-07-10 02:00 2.73 ug/m3 0.08 ug/m3 75.44 ug/m3 14.57 ug/m3 4.46 ug/m3 0.11 mg/m3 25.26 C 90.87 % 4.14 m/s 280.8 Deg 0.02 ug/m3
2021-07-10 01:00 2.35 ug/m3 0.03 ug/m3 79.07 ug/m3 13.71 ug/m3 4.74 ug/m3 0.12 mg/m3 25.4 C 90.09 % 4.59 m/s 263.65 Deg 0.03 ug/m3
2021-07-10 00:00 2.01 ug/m3 -0.07 ug/m3 76.99 ug/m3 13.61 ug/m3 4.6 ug/m3 0.12 mg/m3 25.37 C 90.83 % 4.62 m/s 265.45 Deg 0.03 ug/m3
2021-07-09 23:00 0.84 ug/m3 -0.14 ug/m3 75.8 ug/m3 13.1 ug/m3 5.29 ug/m3 0.13 mg/m3 25.29 C 92.92 % 4.91 m/s 270.01 Deg 0.02 ug/m3
2021-07-09 22:00 1.94 ug/m3 -0.15 ug/m3 72.21 ug/m3 14.23 ug/m3 5.26 ug/m3 0.14 mg/m3 25.34 C 95.01 % 4.75 m/s 279.81 Deg 0.02 ug/m3
2021-07-09 21:00 0.32 ug/m3 -0.18 ug/m3 84.22 ug/m3 17.25 ug/m3 5.48 ug/m3 0.14 mg/m3 25.45 C 94.45 % 5.54 m/s 265.91 Deg 0.02 ug/m3
2021-07-09 20:00 3.86 ug/m3 -0.14 ug/m3 93.58 ug/m3 15.86 ug/m3 5.34 ug/m3 0.13 mg/m3 25.45 C 95.43 % 5.01 m/s 262.56 Deg 0.02 ug/m3
2021-07-09 19:00 0.13 ug/m3 -0.06 ug/m3 97.96 ug/m3 14.49 ug/m3 5.61 ug/m3 0.13 mg/m3 25.79 C 93.74 % 6.02 m/s 255.15 Deg 0.02 ug/m3
2021-07-09 18:00 1.19 ug/m3 0.14 ug/m3 102.88 ug/m3 14.66 ug/m3 5.73 ug/m3 0.13 mg/m3 26.1 C 91.37 % 6.62 m/s 255.47 Deg 0.09 ug/m3
2021-07-09 17:00 3.97 ug/m3 0.2 ug/m3 93.03 ug/m3 14.74 ug/m3 5.94 ug/m3 0.13 mg/m3 26.38 C 90.19 % 6.08 m/s 254.86 Deg 0.57 ug/m3
2021-07-09 16:00 0.27 ug/m3 0.04 ug/m3 95.25 ug/m3 11.47 ug/m3 5.8 ug/m3 0.13 mg/m3 26.5 C 88.52 % 5.95 m/s 264.86 Deg 0.04 ug/m3
2021-07-09 15:00 0.21 ug/m3 -0.01 ug/m3 87.39 ug/m3 8.76 ug/m3 5.41 ug/m3 0.14 mg/m3 26.8 C 87.21 % 6.15 m/s 269.82 Deg 0.04 ug/m3
2021-07-09 14:00 0.16 ug/m3 -0.09 ug/m3 74.54 ug/m3 7.31 ug/m3 4.53 ug/m3 0.14 mg/m3 26.84 C 86.63 % 6.46 m/s 277.81 Deg 0.05 ug/m3
2021-07-09 13:00 0.11 ug/m3 -0.09 ug/m3 73.83 ug/m3 7.01 ug/m3 4.27 ug/m3 0.14 mg/m3 26.95 C 84.88 % 6.38 m/s 283.12 Deg 0.05 ug/m3
2021-07-09 11:00 0.21 ug/m3 -0.16 ug/m3 72.96 ug/m3 4.65 ug/m3 4.41 ug/m3 0.14 mg/m3 C % 5.97 m/s 262.51 Deg 0.05 ug/m3
2021-07-09 10:00 0.24 ug/m3 -0.14 ug/m3 74.68 ug/m3 4.46 ug/m3 3.15 ug/m3 0.15 mg/m3 C % 4.87 m/s 244.1 Deg 0.06 ug/m3
2021-07-09 09:00 0.17 ug/m3 -0.17 ug/m3 76.24 ug/m3 4.17 ug/m3 3.47 ug/m3 0.15 mg/m3 C % 4.63 m/s 244.42 Deg 0.05 ug/m3
2021-07-09 08:00 0.26 ug/m3 -0.2 ug/m3 76.97 ug/m3 4.76 ug/m3 3.56 ug/m3 0.14 mg/m3 25.58 C 91.36 % 4.22 m/s 253.5 Deg 0.06 ug/m3
2021-07-09 07:00 0.81 ug/m3 -0.19 ug/m3 74.34 ug/m3 5.27 ug/m3 3.83 ug/m3 0.14 mg/m3 25.1 C 93.58 % 3.6 m/s 265.81 Deg 0.08 ug/m3
2021-07-09 06:00 0.85 ug/m3 -0.17 ug/m3 73.7 ug/m3 4.06 ug/m3 3.46 ug/m3 0.14 mg/m3 24.86 C 95.16 % 3.9 m/s 273.19 Deg 0.05 ug/m3
2021-07-09 05:00 0.51 ug/m3 -0.16 ug/m3 73.86 ug/m3 4.44 ug/m3 3.6 ug/m3 0.14 mg/m3 24.88 C 95.12 % 4.01 m/s 260.59 Deg 0.03 ug/m3
2021-07-09 04:00 1.55 ug/m3 -0.1 ug/m3 67.92 ug/m3 6.63 ug/m3 4.73 ug/m3 0.14 mg/m3 24.69 C 94.85 % 2.49 m/s 242.42 Deg 0.02 ug/m3
2021-07-09 03:00 2.89 ug/m3 -0 ug/m3 66.72 ug/m3 6.45 ug/m3 4.08 ug/m3 0.14 mg/m3 24.94 C 90.84 % 1.44 m/s 233.53 Deg 0.02 ug/m3
2021-07-09 02:00 2.76 ug/m3 0.18 ug/m3 77.93 ug/m3 5.56 ug/m3 4.57 ug/m3 0.13 mg/m3 25.37 C 82.42 % 1.16 m/s 251.78 Deg 0.02 ug/m3
2021-07-09 01:00 5.55 ug/m3 0.09 ug/m3 66.83 ug/m3 4.65 ug/m3 4.6 ug/m3 0.13 mg/m3 25.01 C 92.47 % 0.98 m/s 257.49 Deg 0.03 ug/m3
2021-07-09 00:00 5.62 ug/m3 0.04 ug/m3 68 ug/m3 6.04 ug/m3 4.88 ug/m3 0.13 mg/m3 25.21 C 91.08 % 1.13 m/s 328.13 Deg 0.02 ug/m3
2021-07-08 23:00 2.78 ug/m3 -0.05 ug/m3 71.82 ug/m3 7.22 ug/m3 4.2 ug/m3 0.13 mg/m3 25.4 C 90.96 % 2.25 m/s 346.25 Deg 0.02 ug/m3
2021-07-08 22:00 4.21 ug/m3 -0.05 ug/m3 72.99 ug/m3 6.64 ug/m3 4.51 ug/m3 0.14 mg/m3 25.79 C 88.61 % 3.22 m/s 328.17 Deg 0.07 ug/m3
2021-07-08 21:00 1.21 ug/m3 -0.06 ug/m3 80.35 ug/m3 5.65 ug/m3 5.29 ug/m3 0.14 mg/m3 26.23 C 85.4 % 2.4 m/s 288.57 Deg 0.01 ug/m3
2021-07-08 20:00 0.61 ug/m3 -0.02 ug/m3 86.6 ug/m3 5.99 ug/m3 5.07 ug/m3 0.14 mg/m3 26.69 C 78.74 % 3.12 m/s 228.34 Deg 0.02 ug/m3
2021-07-08 19:00 0.15 ug/m3 0.06 ug/m3 93.47 ug/m3 4.33 ug/m3 3.8 ug/m3 0.13 mg/m3 27.44 C 71.44 % 4.04 m/s 217.8 Deg 0.02 ug/m3
2021-07-08 18:00 0.25 ug/m3 0.14 ug/m3 95.73 ug/m3 4.76 ug/m3 3.84 ug/m3 0.13 mg/m3 27.93 C 65.66 % 4.26 m/s 219.93 Deg 0.02 ug/m3
2021-07-08 17:00 0.52 ug/m3 0.16 ug/m3 97.67 ug/m3 3.95 ug/m3 4.34 ug/m3 0.13 mg/m3 29.07 C 52.02 % 4.06 m/s 216.48 Deg 0.04 ug/m3
2021-07-08 16:00 0.42 ug/m3 0.2 ug/m3 96.86 ug/m3 4.01 ug/m3 3.24 ug/m3 0.14 mg/m3 28.43 C 64.05 % 3.77 m/s 221.54 Deg 0.06 ug/m3
2021-07-08 15:00 0.52 ug/m3 0.26 ug/m3 100.24 ug/m3 7.06 ug/m3 3.91 ug/m3 0.13 mg/m3 28.85 C 60.95 % 3.3 m/s 242.7 Deg 0.05 ug/m3
2021-07-08 14:00 0.5 ug/m3 0.3 ug/m3 102.97 ug/m3 8.56 ug/m3 5.01 ug/m3 0.13 mg/m3 28.82 C 55.15 % 3.47 m/s 280.71 Deg 0.05 ug/m3
2021-07-08 13:00 0.55 ug/m3 0.38 ug/m3 102.97 ug/m3 7.3 ug/m3 4.73 ug/m3 0.13 mg/m3 28.13 C 63.46 % 3.45 m/s 295.22 Deg 0.06 ug/m3
2021-07-08 12:00 0.94 ug/m3 0.39 ug/m3 102.92 ug/m3 8.2 ug/m3 4.13 ug/m3 0.13 mg/m3 27.05 C 74.48 % 3.55 m/s 324.23 Deg 0.13 ug/m3
2021-07-08 11:00 1.58 ug/m3 0.34 ug/m3 97.62 ug/m3 7.61 ug/m3 3.74 ug/m3 0.13 mg/m3 27.06 C 76.98 % 3.14 m/s 340.99 Deg 0.25 ug/m3
2021-07-08 10:00 2.44 ug/m3 0.02 ug/m3 87.47 ug/m3 6.78 ug/m3 3.59 ug/m3 0.13 mg/m3 26.18 C 87.4 % 4.53 m/s 323.49 Deg 0.43 ug/m3
2021-07-08 09:00 4.43 ug/m3 -0.02 ug/m3 79.9 ug/m3 6.77 ug/m3 3.43 ug/m3 0.13 mg/m3 26.03 C 89.93 % 4.04 m/s 318.48 Deg 0.96 ug/m3
2021-07-08 08:00 1.56 ug/m3 0.05 ug/m3 81.63 ug/m3 12.75 ug/m3 5.17 ug/m3 0.13 mg/m3 26.56 C 83.42 % 2.64 m/s 287.11 Deg 0.22 ug/m3
2021-07-08 07:00 4.75 ug/m3 -0.01 ug/m3 70.86 ug/m3 9.23 ug/m3 5.32 ug/m3 0.15 mg/m3 25.7 C 84.56 % 1.36 m/s 71 Deg 0.48 ug/m3
2021-07-08 06:00 2.02 ug/m3 -0.09 ug/m3 74.37 ug/m3 5.09 ug/m3 4.39 ug/m3 0.14 mg/m3 24.48 C 95.7 % 1.89 m/s 93.4 Deg 0.07 ug/m3
2021-07-08 05:00 0.95 ug/m3 -0.05 ug/m3 81.6 ug/m3 4.81 ug/m3 4.27 ug/m3 0.13 mg/m3 24.65 C 94.16 % 1.34 m/s 64.75 Deg 0.02 ug/m3
2021-07-08 04:00 1.62 ug/m3 -0.07 ug/m3 82.39 ug/m3 5.3 ug/m3 3.93 ug/m3 0.13 mg/m3 24.78 C 94.34 % 1.36 m/s 323.4 Deg 0.01 ug/m3
2021-07-08 03:00 2.41 ug/m3 -0.1 ug/m3 77.65 ug/m3 4.07 ug/m3 3.38 ug/m3 0.13 mg/m3 24.94 C 93.29 % 1.68 m/s 293.51 Deg 0.03 ug/m3
2021-07-08 02:00 1.63 ug/m3 -0.06 ug/m3 73.3 ug/m3 5.25 ug/m3 3.52 ug/m3 0.11 mg/m3 25.18 C 91.13 % 2.41 m/s 257.22 Deg 0.03 ug/m3
2021-07-08 01:00 0.17 ug/m3 -0.11 ug/m3 75.86 ug/m3 5.67 ug/m3 4.88 ug/m3 0.12 mg/m3 25.26 C 89.53 % 2.41 m/s 216.04 Deg 0.02 ug/m3
2021-07-08 00:00 0.37 ug/m3 -0.07 ug/m3 73.22 ug/m3 4.76 ug/m3 4.11 ug/m3 0.13 mg/m3 25.32 C 87.51 % 1.57 m/s 208.24 Deg 0.01 ug/m3
2021-07-07 23:00 0.83 ug/m3 0.01 ug/m3 80.13 ug/m3 5.84 ug/m3 3.96 ug/m3 0.12 mg/m3 25.68 C 83.84 % 1.34 m/s 219.33 Deg 0.02 ug/m3
2021-07-07 22:00 0.83 ug/m3 0.11 ug/m3 87.76 ug/m3 13.48 ug/m3 5.78 ug/m3 0.12 mg/m3 26.11 C 79.09 % 3.1 m/s 191.02 Deg 0.02 ug/m3
2021-07-07 21:00 2.86 ug/m3 0.23 ug/m3 94.97 ug/m3 13.2 ug/m3 6.1 ug/m3 0.14 mg/m3 26.26 C 77.97 % 2.17 m/s 186.52 Deg 0.03 ug/m3
2021-07-07 20:00 1.54 ug/m3 0.23 ug/m3 92.72 ug/m3 10.1 ug/m3 4.53 ug/m3 0.13 mg/m3 26.74 C 73.78 % 1.98 m/s 198.35 Deg 0.02 ug/m3
2021-07-07 19:00 0.95 ug/m3 0.28 ug/m3 98.49 ug/m3 8.84 ug/m3 5.23 ug/m3 0.13 mg/m3 27.46 C 70.66 % 2.44 m/s 200.54 Deg 0.04 ug/m3
2021-07-07 18:00 0.64 ug/m3 0.33 ug/m3 102.69 ug/m3 6.75 ug/m3 4.75 ug/m3 0.13 mg/m3 27.59 C 70.58 % 2.36 m/s 222.21 Deg 0.05 ug/m3
2021-07-07 17:00 0.59 ug/m3 0.4 ug/m3 95.68 ug/m3 8.46 ug/m3 3.65 ug/m3 0.13 mg/m3 28.56 C 63.19 % 2.34 m/s 221.31 Deg 0.06 ug/m3
2021-07-07 16:00 0.48 ug/m3 0.36 ug/m3 91.79 ug/m3 7.09 ug/m3 3.87 ug/m3 0.12 mg/m3 27.79 C 66.52 % 3.53 m/s 219.78 Deg 0.06 ug/m3
2021-07-07 15:00 0.34 ug/m3 0.28 ug/m3 88.28 ug/m3 7.37 ug/m3 4.57 ug/m3 0.12 mg/m3 27.62 C 68.02 % 2.82 m/s 242.38 Deg 0.05 ug/m3
2021-07-07 14:00 0.18 ug/m3 0.24 ug/m3 81.84 ug/m3 8.67 ug/m3 4.81 ug/m3 0.12 mg/m3 26.86 C 75.44 % 3.41 m/s 278.02 Deg 0.04 ug/m3
2021-07-07 13:00 0.35 ug/m3 0.31 ug/m3 87.77 ug/m3 9.13 ug/m3 4.41 ug/m3 0.13 mg/m3 26.93 C 73.49 % 3.56 m/s 320.22 Deg 0.05 ug/m3
2021-07-07 12:00 1.48 ug/m3 0.42 ug/m3 103.82 ug/m3 10.23 ug/m3 4.2 ug/m3 0.13 mg/m3 27.21 C 71.02 % 3.24 m/s 324.49 Deg 0.15 ug/m3
2021-07-07 11:00 2.79 ug/m3 0.53 ug/m3 106.8 ug/m3 10.82 ug/m3 4.88 ug/m3 0.14 mg/m3 27.79 C 67.21 % 2.43 m/s 277.5 Deg 0.34 ug/m3
2021-07-07 10:00 2.71 ug/m3 0.52 ug/m3 99.05 ug/m3 12.96 ug/m3 5.12 ug/m3 0.14 mg/m3 28.15 C 65.38 % 1.98 m/s 294.39 Deg 0.34 ug/m3
2021-07-07 09:00 4.46 ug/m3 0.46 ug/m3 92.05 ug/m3 15.13 ug/m3 6.28 ug/m3 0.13 mg/m3 27.41 C 69.48 % 1.67 m/s 250.87 Deg 0.65 ug/m3
2021-07-07 08:00 2.2 ug/m3 0.39 ug/m3 89.46 ug/m3 9.5 ug/m3 5.68 ug/m3 0.13 mg/m3 26.99 C 65.55 % 1.57 m/s 109.18 Deg 0.24 ug/m3
2021-07-07 07:00 2.17 ug/m3 0.22 ug/m3 86.73 ug/m3 10.07 ug/m3 5.26 ug/m3 0.13 mg/m3 25.41 C 71.75 % 2.18 m/s 77.26 Deg 0.17 ug/m3
2021-07-07 04:00 0.31 ug/m3 0.04 ug/m3 94 ug/m3 6.5 ug/m3 3.45 ug/m3 0.12 mg/m3 23.75 C 94.63 % 0.96 m/s 152.19 Deg 0.01 ug/m3
2021-07-07 03:00 0.4 ug/m3 0.13 ug/m3 97.24 ug/m3 7.45 ug/m3 3.31 ug/m3 0.12 mg/m3 23.91 C 89.89 % 0.82 m/s 240.78 Deg 0.04 ug/m3
2021-07-07 02:00 0.79 ug/m3 0.3 ug/m3 102.55 ug/m3 7.58 ug/m3 3.24 ug/m3 0.11 mg/m3 25.27 C 82.07 % 1.87 m/s 216.46 Deg 0.03 ug/m3
2021-07-06 11:00 N/A N/A N/A N/A N/A N/A N/A N/A 2.95 m/s N/A N/A
2021-07-06 07:00 5.48 ug/m3 0.52 ug/m3 75.56 ug/m3 7.54 ug/m3 3.69 ug/m3 0.13 mg/m3 25.54 C 71.85 % 3.36 m/s 84.66 Deg 0.61 ug/m3
2021-07-06 06:00 4.05 ug/m3 0.14 ug/m3 75.72 ug/m3 8.3 ug/m3 3.09 ug/m3 0.12 mg/m3 24.34 C 77.79 % 3.87 m/s 85.36 Deg 0.15 ug/m3
2021-07-06 05:00 3.35 ug/m3 0.07 ug/m3 75.38 ug/m3 8.7 ug/m3 2.97 ug/m3 0.12 mg/m3 24.09 C 79.79 % 4.49 m/s 83.16 Deg 0.04 ug/m3
2021-07-06 04:00 2.39 ug/m3 0.02 ug/m3 77.16 ug/m3 8.86 ug/m3 2.79 ug/m3 0.12 mg/m3 24.25 C 78.76 % 4.42 m/s 90.9 Deg 0.03 ug/m3
2021-07-06 03:00 6.12 ug/m3 -0.01 ug/m3 79.56 ug/m3 10.12 ug/m3 3.67 ug/m3 0.11 mg/m3 24.47 C 76.21 % 4.3 m/s 89.07 Deg 0.42 ug/m3
2021-07-06 02:00 1.3 ug/m3 0.04 ug/m3 80.31 ug/m3 10.47 ug/m3 4.27 ug/m3 0.11 mg/m3 24.92 C 73.6 % 5.28 m/s 88.48 Deg 0.03 ug/m3
2021-07-06 01:00 2.35 ug/m3 0.11 ug/m3 79.02 ug/m3 11.41 ug/m3 3.57 ug/m3 0.12 mg/m3 24.98 C 76.42 % 5.22 m/s 83.85 Deg 0.04 ug/m3
2021-07-06 00:00 4.79 ug/m3 0.17 ug/m3 78.98 ug/m3 12.42 ug/m3 3.43 ug/m3 0.12 mg/m3 25.21 C 75.69 % 5.33 m/s 73.18 Deg 0.03 ug/m3
2021-07-05 23:00 3.27 ug/m3 0.23 ug/m3 87.93 ug/m3 18.11 ug/m3 4.47 ug/m3 0.12 mg/m3 25.45 C 74.19 % 4.18 m/s 71.84 Deg 0.01 ug/m3
2021-07-05 22:00 4.79 ug/m3 0.25 ug/m3 83.32 ug/m3 25.73 ug/m3 4.69 ug/m3 0.13 mg/m3 25.21 C 78.64 % 2.83 m/s 46.6 Deg 0.03 ug/m3
2021-07-05 21:00 6.13 ug/m3 0.11 ug/m3 77.25 ug/m3 25.81 ug/m3 5.21 ug/m3 0.13 mg/m3 25.05 C 84.55 % 2.96 m/s 16.73 Deg 0.03 ug/m3
2021-07-05 20:00 7.53 ug/m3 0.1 ug/m3 79.49 ug/m3 20.98 ug/m3 5.15 ug/m3 0.12 mg/m3 25.19 C 84.48 % 5.02 m/s 24.2 Deg 0.05 ug/m3
2021-07-05 19:00 2.79 ug/m3 0.02 ug/m3 86.22 ug/m3 17.42 ug/m3 4.47 ug/m3 0.12 mg/m3 25.38 C 83.83 % 6.03 m/s 259.53 Deg 0.12 ug/m3
2021-07-05 18:00 1.4 ug/m3 0.08 ug/m3 87.55 ug/m3 17.04 ug/m3 4.76 ug/m3 0.12 mg/m3 25.74 C 80.93 % 7.29 m/s 307.4 Deg 0.14 ug/m3
2021-07-05 17:00 0.83 ug/m3 0.15 ug/m3 92.3 ug/m3 17.85 ug/m3 6.38 ug/m3 0.12 mg/m3 26.36 C 77.72 % 7.53 m/s 302.01 Deg 0.1 ug/m3
2021-07-05 16:00 1.56 ug/m3 0.22 ug/m3 95.02 ug/m3 19.19 ug/m3 7.23 ug/m3 0.12 mg/m3 26.31 C 80.22 % 7.37 m/s 300.15 Deg 0.22 ug/m3
2021-07-05 15:00 0.89 ug/m3 0.11 ug/m3 89.52 ug/m3 17.58 ug/m3 7.26 ug/m3 0.12 mg/m3 26.3 C 84.02 % 7.13 m/s 293.78 Deg 0.11 ug/m3
2021-07-05 14:00 0.45 ug/m3 0.1 ug/m3 84.18 ug/m3 16.85 ug/m3 6.68 ug/m3 0.13 mg/m3 26.18 C 83.47 % 6.72 m/s 297.14 Deg 0.05 ug/m3
2021-07-05 13:00 0.83 ug/m3 0.1 ug/m3 93.94 ug/m3 15.64 ug/m3 4.74 ug/m3 0.12 mg/m3 25.86 C 83.23 % 6.61 m/s 302.66 Deg 0.09 ug/m3
2021-07-05 12:00 0.59 ug/m3 0.03 ug/m3 86.64 ug/m3 15.43 ug/m3 4.85 ug/m3 0.12 mg/m3 25.85 C 81.18 % 6.31 m/s 304.08 Deg 0.07 ug/m3
2021-07-05 11:00 1.13 ug/m3 0.17 ug/m3 96.3 ug/m3 16.69 ug/m3 4.93 ug/m3 0.12 mg/m3 25.75 C 80.35 % 6.74 m/s 303.15 Deg 0.13 ug/m3
2021-07-05 10:00 3.13 ug/m3 0.2 ug/m3 100.17 ug/m3 14.74 ug/m3 5.02 ug/m3 0.13 mg/m3 25.54 C 80.93 % 6.46 m/s 304.55 Deg 0.54 ug/m3
2021-07-05 09:00 1.94 ug/m3 0.13 ug/m3 101.06 ug/m3 13.58 ug/m3 4.82 ug/m3 0.13 mg/m3 25.11 C 84.98 % 5.72 m/s 303.82 Deg 0.22 ug/m3
2021-07-05 08:00 5.31 ug/m3 0.11 ug/m3 96.19 ug/m3 11.35 ug/m3 4.32 ug/m3 0.13 mg/m3 24.87 C 86.77 % 5.6 m/s 313.2 Deg 0.72 ug/m3
2021-07-05 07:00 5.79 ug/m3 -0.02 ug/m3 87.15 ug/m3 8.68 ug/m3 4.64 ug/m3 0.14 mg/m3 24.86 C 84.98 % 4.45 m/s 297.64 Deg 0.63 ug/m3
2021-07-05 06:00 0.75 ug/m3 -0.21 ug/m3 81.53 ug/m3 6.88 ug/m3 4.68 ug/m3 0.13 mg/m3 24.45 C 91.63 % 3.83 m/s 290.97 Deg 0.04 ug/m3
2021-07-05 05:00 0.69 ug/m3 -0.22 ug/m3 72.91 ug/m3 7.84 ug/m3 5.17 ug/m3 0.13 mg/m3 24.47 C 96.23 % 3.51 m/s 275.06 Deg 0.02 ug/m3
2021-07-05 04:00 4.72 ug/m3 -0.18 ug/m3 70.37 ug/m3 7.95 ug/m3 5.7 ug/m3 0.15 mg/m3 24.79 C 98.17 % 3.51 m/s 257.49 Deg 0.03 ug/m3
2021-07-05 03:00 3.53 ug/m3 -0.19 ug/m3 77.83 ug/m3 7.84 ug/m3 6.31 ug/m3 0.15 mg/m3 24.96 C 98.29 % 3.55 m/s 246.09 Deg 0.03 ug/m3
2021-07-05 02:00 0.19 ug/m3 -0.2 ug/m3 81.38 ug/m3 8.08 ug/m3 6.05 ug/m3 0.14 mg/m3 25.17 C 96.41 % 3.32 m/s 239.45 Deg 0.01 ug/m3
2021-07-05 01:00 0.05 ug/m3 -0.18 ug/m3 83.28 ug/m3 8.67 ug/m3 6.01 ug/m3 0.16 mg/m3 25.39 C 92.54 % 2.29 m/s 231.25 Deg 0.01 ug/m3
2021-07-05 00:00 0.15 ug/m3 -0.08 ug/m3 89.75 ug/m3 9.62 ug/m3 6.71 ug/m3 0.16 mg/m3 26.02 C 84.05 % 3.95 m/s 212.02 Deg 0.01 ug/m3
2021-07-04 23:00 0.22 ug/m3 -0.03 ug/m3 93.17 ug/m3 8.51 ug/m3 5.89 ug/m3 0.15 mg/m3 26.38 C 76.21 % 4.58 m/s 204.16 Deg 0.01 ug/m3
2021-07-04 22:00 0.29 ug/m3 -0.07 ug/m3 91.08 ug/m3 8.22 ug/m3 5.57 ug/m3 0.16 mg/m3 26.23 C 80.65 % 4.52 m/s 197.64 Deg 0.01 ug/m3
2021-07-04 21:00 0.66 ug/m3 -0.04 ug/m3 89.51 ug/m3 10.29 ug/m3 5.9 ug/m3 0.16 mg/m3 26.52 C 77.75 % 3.69 m/s 193.37 Deg 0.01 ug/m3
2021-07-04 20:00 1.11 ug/m3 0.04 ug/m3 94.1 ug/m3 11.59 ug/m3 5.83 ug/m3 0.16 mg/m3 26.87 C 77.52 % 3.31 m/s 190.16 Deg 0.02 ug/m3
2021-07-04 19:00 0.95 ug/m3 0.4 ug/m3 106.98 ug/m3 11.79 ug/m3 6.12 ug/m3 0.16 mg/m3 28.05 C 65.58 % 3.91 m/s 180.32 Deg 0.02 ug/m3
2021-07-04 18:00 1.13 ug/m3 0.69 ug/m3 114.56 ug/m3 12.51 ug/m3 7.23 ug/m3 0.17 mg/m3 29.38 C 52.11 % 3.98 m/s 186.21 Deg 0.03 ug/m3
2021-07-04 17:00 1.69 ug/m3 0.86 ug/m3 122.33 ug/m3 9.88 ug/m3 7.98 ug/m3 0.17 mg/m3 30.5 C 40.78 % 4.24 m/s 200.78 Deg 0.05 ug/m3
2021-07-04 16:00 1.4 ug/m3 0.89 ug/m3 125.39 ug/m3 10.79 ug/m3 6.99 ug/m3 0.18 mg/m3 30.09 C 41.13 % 3.81 m/s 219.22 Deg 0.06 ug/m3
2021-07-04 15:00 1.11 ug/m3 0.86 ug/m3 123.64 ug/m3 12.94 ug/m3 5.56 ug/m3 0.18 mg/m3 29.03 C 53.05 % 3.87 m/s 214.91 Deg 0.06 ug/m3
2021-07-04 14:00 1.18 ug/m3 0.93 ug/m3 127.42 ug/m3 11.82 ug/m3 6.65 ug/m3 0.18 mg/m3 28.19 C 61.61 % 3.91 m/s 219.31 Deg 0.07 ug/m3
2021-07-04 13:00 4.36 ug/m3 1.2 ug/m3 131.58 ug/m3 11.43 ug/m3 7.66 ug/m3 0.18 mg/m3 28.17 C 59.63 % 3.64 m/s 222.26 Deg 0.51 ug/m3
2021-07-04 12:00 2.38 ug/m3 0.52 ug/m3 129.17 ug/m3 10.13 ug/m3 6.22 ug/m3 0.18 mg/m3 27.52 C 69.38 % 3.75 m/s 216.28 Deg 0.21 ug/m3
2021-07-04 11:00 1.21 ug/m3 0.4 ug/m3 130.14 ug/m3 9.93 ug/m3 5.96 ug/m3 0.17 mg/m3 26.86 C 77.97 % 3.86 m/s 215.61 Deg 0.06 ug/m3
2021-07-04 10:00 0.96 ug/m3 0.59 ug/m3 128.95 ug/m3 9.19 ug/m3 5.7 ug/m3 0.17 mg/m3 27.4 C 66.26 % 3.54 m/s 220.69 Deg 0.04 ug/m3
2021-07-04 09:00 0.81 ug/m3 0.18 ug/m3 129.57 ug/m3 9.43 ug/m3 6.12 ug/m3 0.17 mg/m3 26.63 C 73.11 % 3.36 m/s 214.29 Deg 0.04 ug/m3
2021-07-04 08:00 0.85 ug/m3 -0.05 ug/m3 129.33 ug/m3 10.98 ug/m3 7.58 ug/m3 0.23 mg/m3 25.93 C 82.39 % 3.71 m/s 211.07 Deg 0.06 ug/m3
2021-07-04 07:00 0.84 ug/m3 -0.16 ug/m3 132.21 ug/m3 11.2 ug/m3 6.45 ug/m3 0.18 mg/m3 25.35 C 86.65 % 3.19 m/s 213.87 Deg 0.04 ug/m3
2021-07-04 06:00 0.72 ug/m3 -0.14 ug/m3 131.28 ug/m3 9.37 ug/m3 6.03 ug/m3 0.17 mg/m3 24.91 C 89.4 % 3.87 m/s 211.37 Deg 0.01 ug/m3
2021-07-04 05:00 0.57 ug/m3 -0.1 ug/m3 123.8 ug/m3 9.01 ug/m3 5.49 ug/m3 0.16 mg/m3 24.74 C 92.21 % 4.89 m/s 209.64 Deg 0.02 ug/m3
2021-07-04 04:00 0.96 ug/m3 -0.07 ug/m3 122.57 ug/m3 7.58 ug/m3 7.31 ug/m3 0.16 mg/m3 25.03 C 89.89 % 5.36 m/s 205.93 Deg 0.01 ug/m3
2021-07-04 03:00 2.73 ug/m3 -0.02 ug/m3 122.73 ug/m3 6.69 ug/m3 6.51 ug/m3 0.15 mg/m3 25.25 C 77.67 % 4.32 m/s 196.25 Deg 0.01 ug/m3
2021-07-04 02:00 3.11 ug/m3 0.41 ug/m3 110.78 ug/m3 5.46 ug/m3 5.09 ug/m3 0.12 mg/m3 27.63 C 39.04 % 2.03 m/s 176.08 Deg -0 ug/m3
2021-07-04 01:00 2.8 ug/m3 0.21 ug/m3 108.92 ug/m3 10.01 ug/m3 3.33 ug/m3 0.15 mg/m3 25.81 C 64.3 % 2.31 m/s 154.93 Deg 0.02 ug/m3
2021-07-04 00:00 7.18 ug/m3 0.51 ug/m3 108.19 ug/m3 10.63 ug/m3 5.34 ug/m3 0.15 mg/m3 26.73 C 49.18 % 2.53 m/s 166.85 Deg 0.01 ug/m3
2021-07-03 23:00 10.89 ug/m3 0.64 ug/m3 104.52 ug/m3 14.52 ug/m3 5.8 ug/m3 0.18 mg/m3 27.01 C 49.56 % 1.89 m/s 144.91 Deg 0.02 ug/m3
2021-07-03 22:00 11.37 ug/m3 0.44 ug/m3 98.33 ug/m3 9.48 ug/m3 4.78 ug/m3 0.2 mg/m3 26.64 C 53.8 % 1.65 m/s 150.48 Deg 0.02 ug/m3
2021-07-03 21:00 3.37 ug/m3 0.28 ug/m3 112.34 ug/m3 7.73 ug/m3 2.95 ug/m3 0.13 mg/m3 27.37 C 38.27 % 0.84 m/s 153.69 Deg 0.01 ug/m3
2021-07-03 20:00 2.81 ug/m3 0.35 ug/m3 115.5 ug/m3 6.07 ug/m3 3.99 ug/m3 0.13 mg/m3 27.55 C 42.55 % 1.32 m/s 290.48 Deg 0.01 ug/m3
2021-07-03 19:00 3.26 ug/m3 0.37 ug/m3 116.01 ug/m3 5.38 ug/m3 4.65 ug/m3 0.11 mg/m3 29.71 C 35.68 % 0.96 m/s 232.56 Deg 0.02 ug/m3
2021-07-03 18:00 2.01 ug/m3 0.53 ug/m3 118.93 ug/m3 7.07 ug/m3 5.71 ug/m3 0.12 mg/m3 29.91 C 35.44 % 2.05 m/s 226.01 Deg 0.03 ug/m3
2021-07-03 17:00 1.94 ug/m3 0.7 ug/m3 124.02 ug/m3 6.69 ug/m3 4.72 ug/m3 0.13 mg/m3 29.08 C 41.97 % 3.94 m/s 245.76 Deg 0.04 ug/m3
2021-07-03 16:00 1.75 ug/m3 0.72 ug/m3 122.51 ug/m3 8.04 ug/m3 4.2 ug/m3 0.13 mg/m3 29.09 C 43.08 % 4.11 m/s 255.24 Deg 0.07 ug/m3
2021-07-03 15:00 1.93 ug/m3 0.74 ug/m3 124.62 ug/m3 9.7 ug/m3 4.39 ug/m3 0.13 mg/m3 28.64 C 49.55 % 4.12 m/s 260.91 Deg 0.07 ug/m3
2021-07-03 14:00 2.26 ug/m3 0.8 ug/m3 121.15 ug/m3 9.93 ug/m3 4.39 ug/m3 0.13 mg/m3 29.31 C 40.54 % 3.9 m/s 284.44 Deg 0.08 ug/m3
2021-07-03 13:00 2.39 ug/m3 0.94 ug/m3 119.33 ug/m3 7.3 ug/m3 4.75 ug/m3 0.13 mg/m3 29.7 C 36.76 % 3.64 m/s 296.4 Deg 0.08 ug/m3
2021-07-03 12:00 2.79 ug/m3 0.88 ug/m3 115.5 ug/m3 7.34 ug/m3 4.18 ug/m3 0.13 mg/m3 29.45 C 38.19 % 3.51 m/s 282.78 Deg 0.14 ug/m3
2021-07-03 11:00 2.83 ug/m3 0.89 ug/m3 113.17 ug/m3 5.97 ug/m3 6.02 ug/m3 0.13 mg/m3 29.13 C 37.58 % 3.21 m/s 300.69 Deg 0.13 ug/m3
2021-07-03 10:00 2.85 ug/m3 0.97 ug/m3 108.74 ug/m3 9.82 ug/m3 6.82 ug/m3 0.13 mg/m3 28.51 C 41.5 % 3.39 m/s 322.07 Deg 0.17 ug/m3
2021-07-03 09:00 4.79 ug/m3 1.43 ug/m3 102.53 ug/m3 13.05 ug/m3 6.53 ug/m3 0.15 mg/m3 27.84 C 52.58 % 3.29 m/s 303.79 Deg 0.52 ug/m3
2021-07-03 08:00 7.35 ug/m3 0.68 ug/m3 86.04 ug/m3 14.65 ug/m3 7.77 ug/m3 0.15 mg/m3 26.06 C 72.86 % 3.46 m/s 278.75 Deg 1.05 ug/m3
2021-07-03 07:00 7.69 ug/m3 0.3 ug/m3 76.51 ug/m3 15.94 ug/m3 5.36 ug/m3 0.17 mg/m3 24.99 C 85.86 % 2.71 m/s 251.27 Deg 0.8 ug/m3
2021-07-03 06:00 5.55 ug/m3 0.94 ug/m3 90.6 ug/m3 15.88 ug/m3 6.73 ug/m3 0.16 mg/m3 26.29 C 62.36 % 0.94 m/s 216.95 Deg 0.18 ug/m3
2021-07-03 05:00 9.01 ug/m3 1.25 ug/m3 84.9 ug/m3 14.98 ug/m3 7.47 ug/m3 0.16 mg/m3 26.67 C 56.28 % 2.4 m/s 77.87 Deg 0.05 ug/m3
2021-07-03 04:00 4.79 ug/m3 1.08 ug/m3 92.99 ug/m3 14.44 ug/m3 7.04 ug/m3 0.17 mg/m3 26.56 C 57.19 % 2.93 m/s 48.18 Deg 0.04 ug/m3
2021-07-03 03:00 8.01 ug/m3 0.26 ug/m3 77.75 ug/m3 12.19 ug/m3 6.12 ug/m3 0.15 mg/m3 25.07 C 80.86 % 3.15 m/s 22.22 Deg 0.05 ug/m3
2021-07-03 02:00 9.41 ug/m3 0.29 ug/m3 83.23 ug/m3 9.75 ug/m3 5.06 ug/m3 0.13 mg/m3 25.05 C 82.14 % 2.7 m/s 293.18 Deg 0.06 ug/m3
2021-07-03 01:00 6.96 ug/m3 0.18 ug/m3 90.5 ug/m3 8.28 ug/m3 3.8 ug/m3 0.13 mg/m3 25.04 C 75.85 % 2.57 m/s 299.43 Deg 0.02 ug/m3
2021-07-03 00:00 4.46 ug/m3 0.05 ug/m3 92.51 ug/m3 11.3 ug/m3 6.3 ug/m3 0.12 mg/m3 25.05 C 77.82 % 2.77 m/s 253.17 Deg 0.02 ug/m3
2021-07-02 23:00 1.46 ug/m3 -0.07 ug/m3 96.59 ug/m3 13.36 ug/m3 6.78 ug/m3 0.13 mg/m3 24.78 C 86.4 % 2.67 m/s 244.65 Deg 0.02 ug/m3
2021-07-02 22:00 1.07 ug/m3 -0.08 ug/m3 99.31 ug/m3 14.95 ug/m3 5.54 ug/m3 0.13 mg/m3 24.91 C 90.24 % 3.56 m/s 239.5 Deg 0.01 ug/m3
2021-07-02 21:00 1.35 ug/m3 -0.06 ug/m3 98 ug/m3 15.27 ug/m3 5.06 ug/m3 0.13 mg/m3 25.03 C 91.59 % 3.76 m/s 238.13 Deg 0.02 ug/m3
2021-07-02 20:00 0.37 ug/m3 0.03 ug/m3 105.55 ug/m3 15.75 ug/m3 5.4 ug/m3 0.13 mg/m3 25.39 C 88.25 % 3.61 m/s 242.69 Deg 0.02 ug/m3
2021-07-02 19:00 0.8 ug/m3 0.15 ug/m3 112.4 ug/m3 15.99 ug/m3 5.57 ug/m3 0.13 mg/m3 25.94 C 85.86 % 4.43 m/s 245.13 Deg 0.03 ug/m3
2021-07-02 18:00 0.63 ug/m3 0.25 ug/m3 107.73 ug/m3 13.63 ug/m3 6.27 ug/m3 0.13 mg/m3 26.67 C 80.83 % 4.84 m/s 254.31 Deg 0.05 ug/m3

It is to be noted that the data is provisional and subject to quality assurance procedures. For validated data kindly refer your request to contact.air@era.org.mt